<?xml version="1.0" encoding="UTF-8" standalone="no" ?>
<gpx xmlns="http://www.topografix.com/GPX/1/1" creator="www.cicloide.com" version="1.1" xmlns:xsi="http://www.w3.org/2001/XMLSchema-instance" xsi:schemaLocation="http://www.topografix.com/GPX/1/1 http://www.topografix.com/GPX/1/1/gpx.xsd">
  <trk>
    <name>www.cicloide.com 16514</name>
    <desc>www.cicloide.com 16514</desc>
    <trkseg>
      <trkpt lat="41.605826777" lon="2.540406791">
        <ele>114.05</ele>
        <time>2013-12-22T09:32:25Z</time>
      </trkpt>
      <trkpt lat="41.605806828" lon="2.540389357">
        <ele>114.05</ele>
        <time>2013-12-22T09:32:37Z</time>
      </trkpt>
      <trkpt lat="41.605784113" lon="2.540376784">
        <ele>114.05</ele>
        <time>2013-12-22T09:32:44Z</time>
      </trkpt>
      <trkpt lat="41.605766511" lon="2.540380808">
        <ele>114.05</ele>
        <time>2013-12-22T09:33:02Z</time>
      </trkpt>
      <trkpt lat="41.605773636" lon="2.540378964">
        <ele>114.05</ele>
        <time>2013-12-22T09:33:20Z</time>
      </trkpt>
      <trkpt lat="41.605776569" lon="2.540357254">
        <ele>114.05</ele>
        <time>2013-12-22T09:33:35Z</time>
      </trkpt>
      <trkpt lat="41.605776318" lon="2.540374437">
        <ele>114.05</ele>
        <time>2013-12-22T09:33:55Z</time>
      </trkpt>
      <trkpt lat="41.605782688" lon="2.540403020">
        <ele>114.05</ele>
        <time>2013-12-22T09:34:08Z</time>
      </trkpt>
      <trkpt lat="41.605812360" lon="2.540398242">
        <ele>114.05</ele>
        <time>2013-12-22T09:34:23Z</time>
      </trkpt>
      <trkpt lat="41.605803727" lon="2.540381730">
        <ele>114.05</ele>
        <time>2013-12-22T09:34:40Z</time>
      </trkpt>
      <trkpt lat="41.605802218" lon="2.540372929">
        <ele>114.05</ele>
        <time>2013-12-22T09:35:08Z</time>
      </trkpt>
      <trkpt lat="41.605791657" lon="2.540394470">
        <ele>114.05</ele>
        <time>2013-12-22T09:35:27Z</time>
      </trkpt>
      <trkpt lat="41.605781682" lon="2.540392710">
        <ele>114.05</ele>
        <time>2013-12-22T09:35:45Z</time>
      </trkpt>
      <trkpt lat="41.605783862" lon="2.540383657">
        <ele>114.05</ele>
        <time>2013-12-22T09:35:58Z</time>
      </trkpt>
      <trkpt lat="41.605770115" lon="2.540394889">
        <ele>114.05</ele>
        <time>2013-12-22T09:36:13Z</time>
      </trkpt>
      <trkpt lat="41.605758800" lon="2.540396314">
        <ele>114.05</ele>
        <time>2013-12-22T09:36:24Z</time>
      </trkpt>
      <trkpt lat="41.605768355" lon="2.540396985">
        <ele>114.05</ele>
        <time>2013-12-22T09:36:35Z</time>
      </trkpt>
      <trkpt lat="41.605840942" lon="2.540407462">
        <ele>114.05</ele>
        <time>2013-12-22T09:36:41Z</time>
      </trkpt>
      <trkpt lat="41.605909926" lon="2.540435877">
        <ele>114.05</ele>
        <time>2013-12-22T09:36:48Z</time>
      </trkpt>
      <trkpt lat="41.605925684" lon="2.540438391">
        <ele>114.05</ele>
        <time>2013-12-22T09:36:56Z</time>
      </trkpt>
      <trkpt lat="41.605927192" lon="2.540424058">
        <ele>114.05</ele>
        <time>2013-12-22T09:37:01Z</time>
      </trkpt>
      <trkpt lat="41.605926773" lon="2.540421795">
        <ele>114.05</ele>
        <time>2013-12-22T09:37:02Z</time>
      </trkpt>
      <trkpt lat="41.605943286" lon="2.540418610">
        <ele>114.05</ele>
        <time>2013-12-22T09:37:14Z</time>
      </trkpt>
      <trkpt lat="41.606097093" lon="2.540381646">
        <ele>114.05</ele>
        <time>2013-12-22T09:37:20Z</time>
      </trkpt>
      <trkpt lat="41.606224247" lon="2.540436883">
        <ele>114.05</ele>
        <time>2013-12-22T09:37:25Z</time>
      </trkpt>
      <trkpt lat="41.606425832" lon="2.540542578">
        <ele>114.05</ele>
        <time>2013-12-22T09:37:33Z</time>
      </trkpt>
      <trkpt lat="41.606526163" lon="2.540590439">
        <ele>115.01</ele>
        <time>2013-12-22T09:37:37Z</time>
      </trkpt>
      <trkpt lat="41.606759180" lon="2.540699907">
        <ele>115.50</ele>
        <time>2013-12-22T09:37:46Z</time>
      </trkpt>
      <trkpt lat="41.607005273" lon="2.540777188">
        <ele>116.46</ele>
        <time>2013-12-22T09:37:55Z</time>
      </trkpt>
      <trkpt lat="41.607219011" lon="2.540835861">
        <ele>117.42</ele>
        <time>2013-12-22T09:38:03Z</time>
      </trkpt>
      <trkpt lat="41.607496033" lon="2.540851787">
        <ele>117.90</ele>
        <time>2013-12-22T09:38:13Z</time>
      </trkpt>
      <trkpt lat="41.607729972" lon="2.540828317">
        <ele>118.86</ele>
        <time>2013-12-22T09:38:22Z</time>
      </trkpt>
      <trkpt lat="41.608001629" lon="2.540764531">
        <ele>119.34</ele>
        <time>2013-12-22T09:38:32Z</time>
      </trkpt>
      <trkpt lat="41.608132806" lon="2.540759586">
        <ele>119.34</ele>
        <time>2013-12-22T09:38:39Z</time>
      </trkpt>
      <trkpt lat="41.608293655" lon="2.540741816">
        <ele>120.30</ele>
        <time>2013-12-22T09:38:46Z</time>
      </trkpt>
      <trkpt lat="41.608457856" lon="2.540705942">
        <ele>120.78</ele>
        <time>2013-12-22T09:38:52Z</time>
      </trkpt>
      <trkpt lat="41.608558188" lon="2.540703846">
        <ele>121.26</ele>
        <time>2013-12-22T09:38:56Z</time>
      </trkpt>
      <trkpt lat="41.608843927" lon="2.540648358">
        <ele>122.22</ele>
        <time>2013-12-22T09:39:06Z</time>
      </trkpt>
      <trkpt lat="41.609070657" lon="2.540607035">
        <ele>122.71</ele>
        <time>2013-12-22T09:39:14Z</time>
      </trkpt>
      <trkpt lat="41.609312727" lon="2.540560013">
        <ele>123.67</ele>
        <time>2013-12-22T09:39:23Z</time>
      </trkpt>
      <trkpt lat="41.609498554" lon="2.540531850">
        <ele>124.63</ele>
        <time>2013-12-22T09:39:30Z</time>
      </trkpt>
      <trkpt lat="41.609713633" lon="2.540482145">
        <ele>125.11</ele>
        <time>2013-12-22T09:39:38Z</time>
      </trkpt>
      <trkpt lat="41.609925863" lon="2.540420957">
        <ele>125.59</ele>
        <time>2013-12-22T09:39:46Z</time>
      </trkpt>
      <trkpt lat="41.610109510" lon="2.540315932">
        <ele>126.55</ele>
        <time>2013-12-22T09:39:53Z</time>
      </trkpt>
      <trkpt lat="41.610298187" lon="2.540213840">
        <ele>126.55</ele>
        <time>2013-12-22T09:40:00Z</time>
      </trkpt>
      <trkpt lat="41.610536066" lon="2.540098924">
        <ele>127.51</ele>
        <time>2013-12-22T09:40:09Z</time>
      </trkpt>
      <trkpt lat="41.610725999" lon="2.540013345">
        <ele>128.47</ele>
        <time>2013-12-22T09:40:16Z</time>
      </trkpt>
      <trkpt lat="41.610922304" lon="2.539922737">
        <ele>129.43</ele>
        <time>2013-12-22T09:40:23Z</time>
      </trkpt>
      <trkpt lat="41.611115423" lon="2.539831374">
        <ele>129.92</ele>
        <time>2013-12-22T09:40:30Z</time>
      </trkpt>
      <trkpt lat="41.611372831" lon="2.539693995">
        <ele>130.40</ele>
        <time>2013-12-22T09:40:40Z</time>
      </trkpt>
      <trkpt lat="41.611575254" lon="2.539520573">
        <ele>131.36</ele>
        <time>2013-12-22T09:40:49Z</time>
      </trkpt>
      <trkpt lat="41.611741551" lon="2.539347654">
        <ele>132.32</ele>
        <time>2013-12-22T09:40:57Z</time>
      </trkpt>
      <trkpt lat="41.611759656" lon="2.539322173">
        <ele>132.32</ele>
        <time>2013-12-22T09:40:58Z</time>
      </trkpt>
      <trkpt lat="41.611916314" lon="2.539165516">
        <ele>132.80</ele>
        <time>2013-12-22T09:41:05Z</time>
      </trkpt>
      <trkpt lat="41.612080431" lon="2.539018078">
        <ele>134.24</ele>
        <time>2013-12-22T09:41:12Z</time>
      </trkpt>
      <trkpt lat="41.612190402" lon="2.538772907">
        <ele>134.72</ele>
        <time>2013-12-22T09:41:20Z</time>
      </trkpt>
      <trkpt lat="41.612314957" lon="2.538532682">
        <ele>135.68</ele>
        <time>2013-12-22T09:41:28Z</time>
      </trkpt>
      <trkpt lat="41.612472034" lon="2.538310981">
        <ele>136.16</ele>
        <time>2013-12-22T09:41:36Z</time>
      </trkpt>
      <trkpt lat="41.612631709" lon="2.538096320">
        <ele>137.13</ele>
        <time>2013-12-22T09:41:44Z</time>
      </trkpt>
      <trkpt lat="41.612809992" lon="2.537875876">
        <ele>138.09</ele>
        <time>2013-12-22T09:41:52Z</time>
      </trkpt>
      <trkpt lat="41.613001770" lon="2.537659790">
        <ele>139.05</ele>
        <time>2013-12-22T09:42:01Z</time>
      </trkpt>
      <trkpt lat="41.613160942" lon="2.537489805">
        <ele>139.53</ele>
        <time>2013-12-22T09:42:08Z</time>
      </trkpt>
      <trkpt lat="41.613322462" lon="2.537287131">
        <ele>140.01</ele>
        <time>2013-12-22T09:42:16Z</time>
      </trkpt>
      <trkpt lat="41.613476102" lon="2.537065765">
        <ele>140.97</ele>
        <time>2013-12-22T09:42:23Z</time>
      </trkpt>
      <trkpt lat="41.613639884" lon="2.536871808">
        <ele>141.93</ele>
        <time>2013-12-22T09:42:31Z</time>
      </trkpt>
      <trkpt lat="41.613652122" lon="2.536787318">
        <ele>141.45</ele>
        <time>2013-12-22T09:42:36Z</time>
      </trkpt>
      <trkpt lat="41.613632592" lon="2.536686484">
        <ele>142.41</ele>
        <time>2013-12-22T09:42:40Z</time>
      </trkpt>
      <trkpt lat="41.613735019" lon="2.536351124">
        <ele>143.37</ele>
        <time>2013-12-22T09:42:50Z</time>
      </trkpt>
      <trkpt lat="41.613836356" lon="2.536080975">
        <ele>143.85</ele>
        <time>2013-12-22T09:42:58Z</time>
      </trkpt>
      <trkpt lat="41.613946746" lon="2.535807390">
        <ele>144.82</ele>
        <time>2013-12-22T09:43:06Z</time>
      </trkpt>
      <trkpt lat="41.614063589" lon="2.535483262">
        <ele>146.26</ele>
        <time>2013-12-22T09:43:15Z</time>
      </trkpt>
      <trkpt lat="41.614161825" lon="2.535122588">
        <ele>147.22</ele>
        <time>2013-12-22T09:43:25Z</time>
      </trkpt>
      <trkpt lat="41.614257463" lon="2.534849841">
        <ele>148.18</ele>
        <time>2013-12-22T09:43:33Z</time>
      </trkpt>
      <trkpt lat="41.614359554" lon="2.534495454">
        <ele>150.10</ele>
        <time>2013-12-22T09:43:43Z</time>
      </trkpt>
      <trkpt lat="41.614463155" lon="2.534149030">
        <ele>151.54</ele>
        <time>2013-12-22T09:43:53Z</time>
      </trkpt>
      <trkpt lat="41.614567929" lon="2.533791458">
        <ele>152.51</ele>
        <time>2013-12-22T09:44:03Z</time>
      </trkpt>
      <trkpt lat="41.614687455" lon="2.533459954">
        <ele>153.95</ele>
        <time>2013-12-22T09:44:12Z</time>
      </trkpt>
      <trkpt lat="41.614746715" lon="2.533212688">
        <ele>154.43</ele>
        <time>2013-12-22T09:44:18Z</time>
      </trkpt>
      <trkpt lat="41.614866492" lon="2.532820331">
        <ele>155.39</ele>
        <time>2013-12-22T09:44:29Z</time>
      </trkpt>
      <trkpt lat="41.614970344" lon="2.532499807">
        <ele>156.35</ele>
        <time>2013-12-22T09:44:38Z</time>
      </trkpt>
      <trkpt lat="41.615069166" lon="2.532109210">
        <ele>157.79</ele>
        <time>2013-12-22T09:44:48Z</time>
      </trkpt>
      <trkpt lat="41.615115183" lon="2.531696905">
        <ele>158.75</ele>
        <time>2013-12-22T09:44:58Z</time>
      </trkpt>
      <trkpt lat="41.615132953" lon="2.531336902">
        <ele>159.72</ele>
        <time>2013-12-22T09:45:07Z</time>
      </trkpt>
      <trkpt lat="41.615165474" lon="2.530964997">
        <ele>160.68</ele>
        <time>2013-12-22T09:45:16Z</time>
      </trkpt>
      <trkpt lat="41.615193805" lon="2.530599127">
        <ele>161.64</ele>
        <time>2013-12-22T09:45:25Z</time>
      </trkpt>
      <trkpt lat="41.615201433" lon="2.530277178">
        <ele>163.08</ele>
        <time>2013-12-22T09:45:33Z</time>
      </trkpt>
      <trkpt lat="41.615199421" lon="2.529960761">
        <ele>164.04</ele>
        <time>2013-12-22T09:45:41Z</time>
      </trkpt>
      <trkpt lat="41.615204115" lon="2.529576451">
        <ele>165.00</ele>
        <time>2013-12-22T09:45:51Z</time>
      </trkpt>
      <trkpt lat="41.615210318" lon="2.529171102">
        <ele>166.93</ele>
        <time>2013-12-22T09:46:01Z</time>
      </trkpt>
      <trkpt lat="41.615250132" lon="2.528845465">
        <ele>166.93</ele>
        <time>2013-12-22T09:46:09Z</time>
      </trkpt>
      <trkpt lat="41.615342333" lon="2.528414970">
        <ele>167.89</ele>
        <time>2013-12-22T09:46:20Z</time>
      </trkpt>
      <trkpt lat="41.615411986" lon="2.528063685">
        <ele>169.33</ele>
        <time>2013-12-22T09:46:29Z</time>
      </trkpt>
      <trkpt lat="41.615475186" lon="2.527765624">
        <ele>169.81</ele>
        <time>2013-12-22T09:46:37Z</time>
      </trkpt>
      <trkpt lat="41.615524723" lon="2.527520454">
        <ele>171.25</ele>
        <time>2013-12-22T09:46:44Z</time>
      </trkpt>
      <trkpt lat="41.615570404" lon="2.527250389">
        <ele>171.73</ele>
        <time>2013-12-22T09:46:51Z</time>
      </trkpt>
      <trkpt lat="41.615605273" lon="2.527027765">
        <ele>172.69</ele>
        <time>2013-12-22T09:46:57Z</time>
      </trkpt>
      <trkpt lat="41.615613906" lon="2.526723586">
        <ele>174.14</ele>
        <time>2013-12-22T09:47:06Z</time>
      </trkpt>
      <trkpt lat="41.615580798" lon="2.526496185">
        <ele>175.10</ele>
        <time>2013-12-22T09:47:12Z</time>
      </trkpt>
      <trkpt lat="41.615546516" lon="2.526181109">
        <ele>176.06</ele>
        <time>2013-12-22T09:47:20Z</time>
      </trkpt>
      <trkpt lat="41.615533189" lon="2.525789674">
        <ele>177.02</ele>
        <time>2013-12-22T09:47:30Z</time>
      </trkpt>
      <trkpt lat="41.615531512" lon="2.525388349">
        <ele>177.98</ele>
        <time>2013-12-22T09:47:40Z</time>
      </trkpt>
      <trkpt lat="41.615544420" lon="2.525059695">
        <ele>178.94</ele>
        <time>2013-12-22T09:47:48Z</time>
      </trkpt>
      <trkpt lat="41.615574511" lon="2.524757862">
        <ele>179.90</ele>
        <time>2013-12-22T09:47:56Z</time>
      </trkpt>
      <trkpt lat="41.615613068" lon="2.524383862">
        <ele>181.83</ele>
        <time>2013-12-22T09:48:06Z</time>
      </trkpt>
      <trkpt lat="41.615637543" lon="2.524103236">
        <ele>182.79</ele>
        <time>2013-12-22T09:48:14Z</time>
      </trkpt>
      <trkpt lat="41.615646680" lon="2.523886563">
        <ele>184.71</ele>
        <time>2013-12-22T09:48:20Z</time>
      </trkpt>
      <trkpt lat="41.615675681" lon="2.523619348">
        <ele>185.19</ele>
        <time>2013-12-22T09:48:27Z</time>
      </trkpt>
      <trkpt lat="41.615706191" lon="2.523321707">
        <ele>185.67</ele>
        <time>2013-12-22T09:48:34Z</time>
      </trkpt>
      <trkpt lat="41.615745418" lon="2.522983832">
        <ele>187.11</ele>
        <time>2013-12-22T09:48:42Z</time>
      </trkpt>
      <trkpt lat="41.615798811" lon="2.522607904">
        <ele>188.08</ele>
        <time>2013-12-22T09:48:51Z</time>
      </trkpt>
      <trkpt lat="41.615846672" lon="2.522280675">
        <ele>189.52</ele>
        <time>2013-12-22T09:48:58Z</time>
      </trkpt>
      <trkpt lat="41.615890258" lon="2.521943806">
        <ele>191.44</ele>
        <time>2013-12-22T09:49:06Z</time>
      </trkpt>
      <trkpt lat="41.615935185" lon="2.521631999">
        <ele>191.44</ele>
        <time>2013-12-22T09:49:13Z</time>
      </trkpt>
      <trkpt lat="41.615974663" lon="2.521359336">
        <ele>192.40</ele>
        <time>2013-12-22T09:49:20Z</time>
      </trkpt>
      <trkpt lat="41.616022943" lon="2.521093043">
        <ele>192.88</ele>
        <time>2013-12-22T09:49:26Z</time>
      </trkpt>
      <trkpt lat="41.616082203" lon="2.520796575">
        <ele>193.36</ele>
        <time>2013-12-22T09:49:33Z</time>
      </trkpt>
      <trkpt lat="41.616175326" lon="2.520481415">
        <ele>194.32</ele>
        <time>2013-12-22T09:49:41Z</time>
      </trkpt>
      <trkpt lat="41.616263001" lon="2.520194000">
        <ele>195.28</ele>
        <time>2013-12-22T09:49:48Z</time>
      </trkpt>
      <trkpt lat="41.616337181" lon="2.519909099">
        <ele>196.73</ele>
        <time>2013-12-22T09:49:55Z</time>
      </trkpt>
      <trkpt lat="41.616405493" lon="2.519651774">
        <ele>196.73</ele>
        <time>2013-12-22T09:50:02Z</time>
      </trkpt>
      <trkpt lat="41.616492246" lon="2.519308033">
        <ele>198.17</ele>
        <time>2013-12-22T09:50:11Z</time>
      </trkpt>
      <trkpt lat="41.616552763" lon="2.519049199">
        <ele>198.65</ele>
        <time>2013-12-22T09:50:18Z</time>
      </trkpt>
      <trkpt lat="41.616639181" lon="2.518719623">
        <ele>199.13</ele>
        <time>2013-12-22T09:50:26Z</time>
      </trkpt>
      <trkpt lat="41.616695004" lon="2.518456850">
        <ele>199.13</ele>
        <time>2013-12-22T09:50:32Z</time>
      </trkpt>
      <trkpt lat="41.616720401" lon="2.518268760">
        <ele>199.61</ele>
        <time>2013-12-22T09:50:37Z</time>
      </trkpt>
      <trkpt lat="41.616734651" lon="2.518008418">
        <ele>200.09</ele>
        <time>2013-12-22T09:50:44Z</time>
      </trkpt>
      <trkpt lat="41.616738674" lon="2.517757967">
        <ele>201.53</ele>
        <time>2013-12-22T09:50:51Z</time>
      </trkpt>
      <trkpt lat="41.616738925" lon="2.517493351">
        <ele>202.01</ele>
        <time>2013-12-22T09:50:58Z</time>
      </trkpt>
      <trkpt lat="41.616750660" lon="2.517316492">
        <ele>202.98</ele>
        <time>2013-12-22T09:51:03Z</time>
      </trkpt>
      <trkpt lat="41.616780332" lon="2.517020527">
        <ele>203.46</ele>
        <time>2013-12-22T09:51:10Z</time>
      </trkpt>
      <trkpt lat="41.616813357" lon="2.516689526">
        <ele>204.90</ele>
        <time>2013-12-22T09:51:18Z</time>
      </trkpt>
      <trkpt lat="41.616835401" lon="2.516435051">
        <ele>205.38</ele>
        <time>2013-12-22T09:51:25Z</time>
      </trkpt>
      <trkpt lat="41.616846381" lon="2.516116623">
        <ele>205.86</ele>
        <time>2013-12-22T09:51:33Z</time>
      </trkpt>
      <trkpt lat="41.616857948" lon="2.515889473">
        <ele>206.82</ele>
        <time>2013-12-22T09:51:39Z</time>
      </trkpt>
      <trkpt lat="41.616856440" lon="2.515653104">
        <ele>207.30</ele>
        <time>2013-12-22T09:51:46Z</time>
      </trkpt>
      <trkpt lat="41.616859541" lon="2.515370382">
        <ele>208.26</ele>
        <time>2013-12-22T09:51:53Z</time>
      </trkpt>
      <trkpt lat="41.616877813" lon="2.515068969">
        <ele>209.22</ele>
        <time>2013-12-22T09:52:01Z</time>
      </trkpt>
      <trkpt lat="41.616883932" lon="2.514697064">
        <ele>210.67</ele>
        <time>2013-12-22T09:52:11Z</time>
      </trkpt>
      <trkpt lat="41.616880496" lon="2.514337564">
        <ele>211.63</ele>
        <time>2013-12-22T09:52:20Z</time>
      </trkpt>
      <trkpt lat="41.616872868" lon="2.514021901">
        <ele>212.59</ele>
        <time>2013-12-22T09:52:28Z</time>
      </trkpt>
      <trkpt lat="41.616881418" lon="2.513714705">
        <ele>214.03</ele>
        <time>2013-12-22T09:52:36Z</time>
      </trkpt>
      <trkpt lat="41.616874377" lon="2.513366688">
        <ele>215.47</ele>
        <time>2013-12-22T09:52:45Z</time>
      </trkpt>
      <trkpt lat="41.616873539" lon="2.513060413">
        <ele>216.43</ele>
        <time>2013-12-22T09:52:53Z</time>
      </trkpt>
      <trkpt lat="41.616842526" lon="2.512776602">
        <ele>216.91</ele>
        <time>2013-12-22T09:53:01Z</time>
      </trkpt>
      <trkpt lat="41.616808579" lon="2.512553141">
        <ele>217.40</ele>
        <time>2013-12-22T09:53:08Z</time>
      </trkpt>
      <trkpt lat="41.616735489" lon="2.512325823">
        <ele>218.36</ele>
        <time>2013-12-22T09:53:15Z</time>
      </trkpt>
      <trkpt lat="41.616627027" lon="2.512127759">
        <ele>218.84</ele>
        <time>2013-12-22T09:53:22Z</time>
      </trkpt>
      <trkpt lat="41.616514709" lon="2.511923743">
        <ele>219.80</ele>
        <time>2013-12-22T09:53:29Z</time>
      </trkpt>
      <trkpt lat="41.616398955" lon="2.511696007">
        <ele>220.76</ele>
        <time>2013-12-22T09:53:37Z</time>
      </trkpt>
      <trkpt lat="41.616386550" lon="2.511661977">
        <ele>221.24</ele>
        <time>2013-12-22T09:53:38Z</time>
      </trkpt>
      <trkpt lat="41.616388562" lon="2.511335250">
        <ele>221.24</ele>
        <time>2013-12-22T09:53:47Z</time>
      </trkpt>
      <trkpt lat="41.616412702" lon="2.511142634">
        <ele>221.72</ele>
        <time>2013-12-22T09:53:53Z</time>
      </trkpt>
      <trkpt lat="41.616476153" lon="2.510905426">
        <ele>223.16</ele>
        <time>2013-12-22T09:54:01Z</time>
      </trkpt>
      <trkpt lat="41.616582184" lon="2.510723204">
        <ele>224.61</ele>
        <time>2013-12-22T09:54:08Z</time>
      </trkpt>
      <trkpt lat="41.616627111" lon="2.510647850">
        <ele>226.05</ele>
        <time>2013-12-22T09:54:11Z</time>
      </trkpt>
      <trkpt lat="41.616690310" lon="2.510541316">
        <ele>227.97</ele>
        <time>2013-12-22T09:54:16Z</time>
      </trkpt>
      <trkpt lat="41.616770944" lon="2.510292457">
        <ele>230.37</ele>
        <time>2013-12-22T09:54:25Z</time>
      </trkpt>
      <trkpt lat="41.616779661" lon="2.510075115">
        <ele>232.30</ele>
        <time>2013-12-22T09:54:34Z</time>
      </trkpt>
      <trkpt lat="41.616805478" lon="2.509880990">
        <ele>234.22</ele>
        <time>2013-12-22T09:54:42Z</time>
      </trkpt>
      <trkpt lat="41.616898181" lon="2.509648476">
        <ele>235.18</ele>
        <time>2013-12-22T09:54:51Z</time>
      </trkpt>
      <trkpt lat="41.616915867" lon="2.509593491">
        <ele>235.18</ele>
        <time>2013-12-22T09:54:53Z</time>
      </trkpt>
      <trkpt lat="41.616865324" lon="2.509528112">
        <ele>235.66</ele>
        <time>2013-12-22T09:54:58Z</time>
      </trkpt>
      <trkpt lat="41.616824085" lon="2.509558287">
        <ele>236.14</ele>
        <time>2013-12-22T09:55:01Z</time>
      </trkpt>
      <trkpt lat="41.616746721" lon="2.509661887">
        <ele>237.58</ele>
        <time>2013-12-22T09:55:08Z</time>
      </trkpt>
      <trkpt lat="41.616629709" lon="2.509843942">
        <ele>238.54</ele>
        <time>2013-12-22T09:55:17Z</time>
      </trkpt>
      <trkpt lat="41.616611353" lon="2.509855677">
        <ele>239.02</ele>
        <time>2013-12-22T09:55:18Z</time>
      </trkpt>
      <trkpt lat="41.616437344" lon="2.509808989">
        <ele>239.99</ele>
        <time>2013-12-22T09:55:28Z</time>
      </trkpt>
      <trkpt lat="41.616373391" lon="2.509748137">
        <ele>241.43</ele>
        <time>2013-12-22T09:55:33Z</time>
      </trkpt>
      <trkpt lat="41.616338019" lon="2.509657696">
        <ele>241.91</ele>
        <time>2013-12-22T09:55:38Z</time>
      </trkpt>
      <trkpt lat="41.616328044" lon="2.509484191">
        <ele>243.83</ele>
        <time>2013-12-22T09:55:46Z</time>
      </trkpt>
      <trkpt lat="41.616319160" lon="2.509346476">
        <ele>245.75</ele>
        <time>2013-12-22T09:55:53Z</time>
      </trkpt>
      <trkpt lat="41.616303569" lon="2.509157883">
        <ele>248.16</ele>
        <time>2013-12-22T09:56:03Z</time>
      </trkpt>
      <trkpt lat="41.616287225" lon="2.508981444">
        <ele>250.08</ele>
        <time>2013-12-22T09:56:12Z</time>
      </trkpt>
      <trkpt lat="41.616242717" lon="2.508798216">
        <ele>252.96</ele>
        <time>2013-12-22T09:56:22Z</time>
      </trkpt>
      <trkpt lat="41.616195359" lon="2.508652790">
        <ele>254.89</ele>
        <time>2013-12-22T09:56:30Z</time>
      </trkpt>
      <trkpt lat="41.616171219" lon="2.508522283">
        <ele>256.33</ele>
        <time>2013-12-22T09:56:37Z</time>
      </trkpt>
      <trkpt lat="41.616130902" lon="2.508330757">
        <ele>257.77</ele>
        <time>2013-12-22T09:56:46Z</time>
      </trkpt>
      <trkpt lat="41.616084885" lon="2.508215087">
        <ele>259.69</ele>
        <time>2013-12-22T09:56:53Z</time>
      </trkpt>
      <trkpt lat="41.616037025" lon="2.508076534">
        <ele>261.14</ele>
        <time>2013-12-22T09:57:01Z</time>
      </trkpt>
      <trkpt lat="41.616019674" lon="2.508015514">
        <ele>262.10</ele>
        <time>2013-12-22T09:57:05Z</time>
      </trkpt>
      <trkpt lat="41.615968377" lon="2.507858772">
        <ele>262.58</ele>
        <time>2013-12-22T09:57:13Z</time>
      </trkpt>
      <trkpt lat="41.615907776" lon="2.507710915">
        <ele>265.46</ele>
        <time>2013-12-22T09:57:21Z</time>
      </trkpt>
      <trkpt lat="41.615848097" lon="2.507551408">
        <ele>266.42</ele>
        <time>2013-12-22T09:57:29Z</time>
      </trkpt>
      <trkpt lat="41.615811803" lon="2.507418135">
        <ele>267.38</ele>
        <time>2013-12-22T09:57:36Z</time>
      </trkpt>
      <trkpt lat="41.615775761" lon="2.507261980">
        <ele>268.35</ele>
        <time>2013-12-22T09:57:44Z</time>
      </trkpt>
      <trkpt lat="41.615769726" lon="2.507223927">
        <ele>269.31</ele>
        <time>2013-12-22T09:57:46Z</time>
      </trkpt>
      <trkpt lat="41.615766960" lon="2.507190315">
        <ele>269.31</ele>
        <time>2013-12-22T09:57:48Z</time>
      </trkpt>
      <trkpt lat="41.615745083" lon="2.507117979">
        <ele>270.75</ele>
        <time>2013-12-22T09:57:52Z</time>
      </trkpt>
      <trkpt lat="41.615716249" lon="2.506915473">
        <ele>272.67</ele>
        <time>2013-12-22T09:58:01Z</time>
      </trkpt>
      <trkpt lat="41.615728906" lon="2.506741297">
        <ele>274.59</ele>
        <time>2013-12-22T09:58:09Z</time>
      </trkpt>
      <trkpt lat="41.615752459" lon="2.506562594">
        <ele>276.52</ele>
        <time>2013-12-22T09:58:18Z</time>
      </trkpt>
      <trkpt lat="41.615789172" lon="2.506382467">
        <ele>279.40</ele>
        <time>2013-12-22T09:58:28Z</time>
      </trkpt>
      <trkpt lat="41.615848348" lon="2.506210387">
        <ele>281.80</ele>
        <time>2013-12-22T09:58:38Z</time>
      </trkpt>
      <trkpt lat="41.615906351" lon="2.506039061">
        <ele>283.73</ele>
        <time>2013-12-22T09:58:47Z</time>
      </trkpt>
      <trkpt lat="41.615965946" lon="2.505868321">
        <ele>285.65</ele>
        <time>2013-12-22T09:58:57Z</time>
      </trkpt>
      <trkpt lat="41.616017160" lon="2.505711161">
        <ele>287.57</ele>
        <time>2013-12-22T09:59:06Z</time>
      </trkpt>
      <trkpt lat="41.616044401" lon="2.505632538">
        <ele>289.01</ele>
        <time>2013-12-22T09:59:11Z</time>
      </trkpt>
      <trkpt lat="41.616101817" lon="2.505456602">
        <ele>290.94</ele>
        <time>2013-12-22T09:59:21Z</time>
      </trkpt>
      <trkpt lat="41.616152611" lon="2.505300112">
        <ele>292.38</ele>
        <time>2013-12-22T09:59:30Z</time>
      </trkpt>
      <trkpt lat="41.616163005" lon="2.505139683">
        <ele>294.78</ele>
        <time>2013-12-22T09:59:38Z</time>
      </trkpt>
      <trkpt lat="41.616156970" lon="2.504973218">
        <ele>296.22</ele>
        <time>2013-12-22T09:59:46Z</time>
      </trkpt>
      <trkpt lat="41.616086729" lon="2.504880598">
        <ele>296.70</ele>
        <time>2013-12-22T09:59:53Z</time>
      </trkpt>
      <trkpt lat="41.615959827" lon="2.504852519">
        <ele>298.15</ele>
        <time>2013-12-22T10:00:01Z</time>
      </trkpt>
      <trkpt lat="41.615808953" lon="2.504826786">
        <ele>299.11</ele>
        <time>2013-12-22T10:00:10Z</time>
      </trkpt>
      <trkpt lat="41.615690265" lon="2.504844053">
        <ele>300.07</ele>
        <time>2013-12-22T10:00:17Z</time>
      </trkpt>
      <trkpt lat="41.615567303" lon="2.504841119">
        <ele>301.51</ele>
        <time>2013-12-22T10:00:25Z</time>
      </trkpt>
      <trkpt lat="41.615426152" lon="2.504831228">
        <ele>302.95</ele>
        <time>2013-12-22T10:00:34Z</time>
      </trkpt>
      <trkpt lat="41.615360270" lon="2.504687898">
        <ele>304.88</ele>
        <time>2013-12-22T10:00:43Z</time>
      </trkpt>
      <trkpt lat="41.615354151" lon="2.504550016">
        <ele>307.28</ele>
        <time>2013-12-22T10:00:51Z</time>
      </trkpt>
      <trkpt lat="41.615356666" lon="2.504393777">
        <ele>309.20</ele>
        <time>2013-12-22T10:01:00Z</time>
      </trkpt>
      <trkpt lat="41.615372424" lon="2.504213901">
        <ele>311.60</ele>
        <time>2013-12-22T10:01:09Z</time>
      </trkpt>
      <trkpt lat="41.615395139" lon="2.504072163">
        <ele>313.05</ele>
        <time>2013-12-22T10:01:16Z</time>
      </trkpt>
      <trkpt lat="41.615422464" lon="2.503914835">
        <ele>315.45</ele>
        <time>2013-12-22T10:01:24Z</time>
      </trkpt>
      <trkpt lat="41.615425649" lon="2.503896311">
        <ele>315.45</ele>
        <time>2013-12-22T10:01:25Z</time>
      </trkpt>
      <trkpt lat="41.615437132" lon="2.503753735">
        <ele>317.37</ele>
        <time>2013-12-22T10:01:32Z</time>
      </trkpt>
      <trkpt lat="41.615436797" lon="2.503611745">
        <ele>319.30</ele>
        <time>2013-12-22T10:01:40Z</time>
      </trkpt>
      <trkpt lat="41.615438054" lon="2.503574278">
        <ele>319.30</ele>
        <time>2013-12-22T10:01:42Z</time>
      </trkpt>
      <trkpt lat="41.615390696" lon="2.503383171">
        <ele>320.26</ele>
        <time>2013-12-22T10:01:52Z</time>
      </trkpt>
      <trkpt lat="41.615339148" lon="2.503168427">
        <ele>320.26</ele>
        <time>2013-12-22T10:01:59Z</time>
      </trkpt>
      <trkpt lat="41.615224315" lon="2.502981342">
        <ele>320.26</ele>
        <time>2013-12-22T10:02:06Z</time>
      </trkpt>
      <trkpt lat="41.615148040" lon="2.502724772">
        <ele>320.74</ele>
        <time>2013-12-22T10:02:13Z</time>
      </trkpt>
      <trkpt lat="41.615082577" lon="2.502438614">
        <ele>321.22</ele>
        <time>2013-12-22T10:02:21Z</time>
      </trkpt>
      <trkpt lat="41.615000686" lon="2.502177434">
        <ele>323.14</ele>
        <time>2013-12-22T10:02:30Z</time>
      </trkpt>
      <trkpt lat="41.614967578" lon="2.501972580">
        <ele>324.10</ele>
        <time>2013-12-22T10:02:37Z</time>
      </trkpt>
      <trkpt lat="41.614967159" lon="2.501945842">
        <ele>324.10</ele>
        <time>2013-12-22T10:02:38Z</time>
      </trkpt>
      <trkpt lat="41.614965901" lon="2.501820700">
        <ele>324.58</ele>
        <time>2013-12-22T10:02:43Z</time>
      </trkpt>
      <trkpt lat="41.614974199" lon="2.501602603">
        <ele>324.58</ele>
        <time>2013-12-22T10:02:48Z</time>
      </trkpt>
      <trkpt lat="41.614853919" lon="2.501481233">
        <ele>324.10</ele>
        <time>2013-12-22T10:02:53Z</time>
      </trkpt>
      <trkpt lat="41.614645210" lon="2.501419207">
        <ele>325.06</ele>
        <time>2013-12-22T10:03:01Z</time>
      </trkpt>
      <trkpt lat="41.614472543" lon="2.501296161">
        <ele>326.50</ele>
        <time>2013-12-22T10:03:10Z</time>
      </trkpt>
      <trkpt lat="41.614333738" lon="2.501200691">
        <ele>327.47</ele>
        <time>2013-12-22T10:03:18Z</time>
      </trkpt>
      <trkpt lat="41.614251260" lon="2.500991060">
        <ele>329.39</ele>
        <time>2013-12-22T10:03:26Z</time>
      </trkpt>
      <trkpt lat="41.614199209" lon="2.500793414">
        <ele>331.31</ele>
        <time>2013-12-22T10:03:35Z</time>
      </trkpt>
      <trkpt lat="41.614190072" lon="2.500777656">
        <ele>331.79</ele>
        <time>2013-12-22T10:03:36Z</time>
      </trkpt>
      <trkpt lat="41.614119245" lon="2.500625273">
        <ele>334.68</ele>
        <time>2013-12-22T10:03:45Z</time>
      </trkpt>
      <trkpt lat="41.614028050" lon="2.500473645">
        <ele>337.56</ele>
        <time>2013-12-22T10:03:55Z</time>
      </trkpt>
      <trkpt lat="41.613963929" lon="2.500345234">
        <ele>340.44</ele>
        <time>2013-12-22T10:04:04Z</time>
      </trkpt>
      <trkpt lat="41.613940292" lon="2.500301732">
        <ele>340.92</ele>
        <time>2013-12-22T10:04:07Z</time>
      </trkpt>
      <trkpt lat="41.613852617" lon="2.500158737">
        <ele>342.85</ele>
        <time>2013-12-22T10:04:17Z</time>
      </trkpt>
      <trkpt lat="41.613830573" lon="2.500054298">
        <ele>344.29</ele>
        <time>2013-12-22T10:04:24Z</time>
      </trkpt>
      <trkpt lat="41.613909530" lon="2.500070475">
        <ele>346.21</ele>
        <time>2013-12-22T10:04:32Z</time>
      </trkpt>
      <trkpt lat="41.613916906" lon="2.500080030">
        <ele>346.69</ele>
        <time>2013-12-22T10:04:33Z</time>
      </trkpt>
      <trkpt lat="41.614032409" lon="2.500193354">
        <ele>349.10</ele>
        <time>2013-12-22T10:04:44Z</time>
      </trkpt>
      <trkpt lat="41.614165681" lon="2.500260661">
        <ele>350.54</ele>
        <time>2013-12-22T10:04:54Z</time>
      </trkpt>
      <trkpt lat="41.614294930" lon="2.500319501">
        <ele>352.94</ele>
        <time>2013-12-22T10:05:04Z</time>
      </trkpt>
      <trkpt lat="41.614423592" lon="2.500403740">
        <ele>355.34</ele>
        <time>2013-12-22T10:05:14Z</time>
      </trkpt>
      <trkpt lat="41.614521577" lon="2.500492755">
        <ele>357.27</ele>
        <time>2013-12-22T10:05:23Z</time>
      </trkpt>
      <trkpt lat="41.614613694" lon="2.500573222">
        <ele>359.67</ele>
        <time>2013-12-22T10:05:31Z</time>
      </trkpt>
      <trkpt lat="41.614746128" lon="2.500583029">
        <ele>360.63</ele>
        <time>2013-12-22T10:05:40Z</time>
      </trkpt>
      <trkpt lat="41.614901528" lon="2.500504490">
        <ele>361.11</ele>
        <time>2013-12-22T10:05:49Z</time>
      </trkpt>
      <trkpt lat="41.615032286" lon="2.500552686">
        <ele>361.59</ele>
        <time>2013-12-22T10:05:55Z</time>
      </trkpt>
      <trkpt lat="41.615147705" lon="2.500610689">
        <ele>362.07</ele>
        <time>2013-12-22T10:06:01Z</time>
      </trkpt>
      <trkpt lat="41.615290365" lon="2.500534330">
        <ele>363.52</ele>
        <time>2013-12-22T10:06:09Z</time>
      </trkpt>
      <trkpt lat="41.615453560" lon="2.500430143">
        <ele>364.48</ele>
        <time>2013-12-22T10:06:18Z</time>
      </trkpt>
      <trkpt lat="41.615624048" lon="2.500447074">
        <ele>366.40</ele>
        <time>2013-12-22T10:06:27Z</time>
      </trkpt>
      <trkpt lat="41.615755309" lon="2.500439027">
        <ele>367.36</ele>
        <time>2013-12-22T10:06:34Z</time>
      </trkpt>
      <trkpt lat="41.615777605" lon="2.500408266">
        <ele>367.84</ele>
        <time>2013-12-22T10:06:36Z</time>
      </trkpt>
      <trkpt lat="41.615733600" lon="2.500271976">
        <ele>370.73</ele>
        <time>2013-12-22T10:06:45Z</time>
      </trkpt>
      <trkpt lat="41.615577194" lon="2.500278011">
        <ele>373.13</ele>
        <time>2013-12-22T10:06:55Z</time>
      </trkpt>
      <trkpt lat="41.615432522" lon="2.500271976">
        <ele>375.53</ele>
        <time>2013-12-22T10:07:04Z</time>
      </trkpt>
      <trkpt lat="41.615276283" lon="2.500256721">
        <ele>377.94</ele>
        <time>2013-12-22T10:07:14Z</time>
      </trkpt>
      <trkpt lat="41.615202355" lon="2.500220427">
        <ele>378.90</ele>
        <time>2013-12-22T10:07:19Z</time>
      </trkpt>
      <trkpt lat="41.615163714" lon="2.500160832">
        <ele>379.38</ele>
        <time>2013-12-22T10:07:23Z</time>
      </trkpt>
      <trkpt lat="41.615042596" lon="2.500020100">
        <ele>380.82</ele>
        <time>2013-12-22T10:07:34Z</time>
      </trkpt>
      <trkpt lat="41.614903037" lon="2.500030326">
        <ele>383.22</ele>
        <time>2013-12-22T10:07:43Z</time>
      </trkpt>
      <trkpt lat="41.614786277" lon="2.500027476">
        <ele>384.66</ele>
        <time>2013-12-22T10:07:51Z</time>
      </trkpt>
      <trkpt lat="41.614685359" lon="2.499902167">
        <ele>388.03</ele>
        <time>2013-12-22T10:08:01Z</time>
      </trkpt>
      <trkpt lat="41.614615873" lon="2.499736540">
        <ele>390.91</ele>
        <time>2013-12-22T10:08:11Z</time>
      </trkpt>
      <trkpt lat="41.614602797" lon="2.499701085">
        <ele>391.39</ele>
        <time>2013-12-22T10:08:13Z</time>
      </trkpt>
      <trkpt lat="41.614557703" lon="2.499520371">
        <ele>394.76</ele>
        <time>2013-12-22T10:08:24Z</time>
      </trkpt>
      <trkpt lat="41.614567174" lon="2.499335550">
        <ele>396.68</ele>
        <time>2013-12-22T10:08:33Z</time>
      </trkpt>
      <trkpt lat="41.614617130" lon="2.499145616">
        <ele>397.64</ele>
        <time>2013-12-22T10:08:42Z</time>
      </trkpt>
      <trkpt lat="41.614627692" lon="2.499129774">
        <ele>397.64</ele>
        <time>2013-12-22T10:08:43Z</time>
      </trkpt>
      <trkpt lat="41.614662812" lon="2.498979990">
        <ele>398.60</ele>
        <time>2013-12-22T10:08:50Z</time>
      </trkpt>
      <trkpt lat="41.614665242" lon="2.498740938">
        <ele>400.53</ele>
        <time>2013-12-22T10:09:01Z</time>
      </trkpt>
      <trkpt lat="41.614684269" lon="2.498586627">
        <ele>401.97</ele>
        <time>2013-12-22T10:09:09Z</time>
      </trkpt>
      <trkpt lat="41.614711594" lon="2.498349000">
        <ele>403.89</ele>
        <time>2013-12-22T10:09:20Z</time>
      </trkpt>
      <trkpt lat="41.614719473" lon="2.498171471">
        <ele>405.81</ele>
        <time>2013-12-22T10:09:29Z</time>
      </trkpt>
      <trkpt lat="41.614708912" lon="2.498005593">
        <ele>407.26</ele>
        <time>2013-12-22T10:09:38Z</time>
      </trkpt>
      <trkpt lat="41.614637750" lon="2.497765536">
        <ele>407.26</ele>
        <time>2013-12-22T10:09:46Z</time>
      </trkpt>
      <trkpt lat="41.614591482" lon="2.497651458">
        <ele>405.33</ele>
        <time>2013-12-22T10:09:48Z</time>
      </trkpt>
      <trkpt lat="41.614467178" lon="2.497500165">
        <ele>403.89</ele>
        <time>2013-12-22T10:09:51Z</time>
      </trkpt>
      <trkpt lat="41.614338600" lon="2.497498907">
        <ele>402.45</ele>
        <time>2013-12-22T10:09:53Z</time>
      </trkpt>
      <trkpt lat="41.614239442" lon="2.497569650">
        <ele>402.45</ele>
        <time>2013-12-22T10:09:55Z</time>
      </trkpt>
      <trkpt lat="41.614145313" lon="2.497682136">
        <ele>403.89</ele>
        <time>2013-12-22T10:09:59Z</time>
      </trkpt>
      <trkpt lat="41.613955631" lon="2.497800488">
        <ele>406.77</ele>
        <time>2013-12-22T10:10:08Z</time>
      </trkpt>
      <trkpt lat="41.613799308" lon="2.497823538">
        <ele>408.70</ele>
        <time>2013-12-22T10:10:16Z</time>
      </trkpt>
      <trkpt lat="41.613679950" lon="2.497706695">
        <ele>409.66</ele>
        <time>2013-12-22T10:10:23Z</time>
      </trkpt>
      <trkpt lat="41.613614319" lon="2.497538386">
        <ele>410.62</ele>
        <time>2013-12-22T10:10:29Z</time>
      </trkpt>
      <trkpt lat="41.613459590" lon="2.497381896">
        <ele>412.06</ele>
        <time>2013-12-22T10:10:37Z</time>
      </trkpt>
      <trkpt lat="41.613411142" lon="2.497357253">
        <ele>412.54</ele>
        <time>2013-12-22T10:10:39Z</time>
      </trkpt>
      <trkpt lat="41.613360348" lon="2.497335209">
        <ele>413.02</ele>
        <time>2013-12-22T10:10:43Z</time>
      </trkpt>
      <trkpt lat="41.613399240" lon="2.497350548">
        <ele>413.02</ele>
        <time>2013-12-22T10:10:49Z</time>
      </trkpt>
      <trkpt lat="41.613390690" lon="2.497345770">
        <ele>413.02</ele>
        <time>2013-12-22T10:11:04Z</time>
      </trkpt>
      <trkpt lat="41.613389014" lon="2.497328084">
        <ele>413.02</ele>
        <time>2013-12-22T10:11:19Z</time>
      </trkpt>
      <trkpt lat="41.613392283" lon="2.497323977">
        <ele>413.02</ele>
        <time>2013-12-22T10:11:34Z</time>
      </trkpt>
      <trkpt lat="41.613399324" lon="2.497330180">
        <ele>413.02</ele>
        <time>2013-12-22T10:11:48Z</time>
      </trkpt>
      <trkpt lat="41.613407538" lon="2.497338729">
        <ele>413.02</ele>
        <time>2013-12-22T10:12:01Z</time>
      </trkpt>
      <trkpt lat="41.613414160" lon="2.497347446">
        <ele>413.02</ele>
        <time>2013-12-22T10:12:18Z</time>
      </trkpt>
      <trkpt lat="41.613417931" lon="2.497353733">
        <ele>413.02</ele>
        <time>2013-12-22T10:12:32Z</time>
      </trkpt>
      <trkpt lat="41.613421033" lon="2.497353146">
        <ele>413.02</ele>
        <time>2013-12-22T10:12:47Z</time>
      </trkpt>
      <trkpt lat="41.613422625" lon="2.497352224">
        <ele>413.02</ele>
        <time>2013-12-22T10:12:58Z</time>
      </trkpt>
      <trkpt lat="41.613427487" lon="2.497350548">
        <ele>413.02</ele>
        <time>2013-12-22T10:13:11Z</time>
      </trkpt>
      <trkpt lat="41.613422458" lon="2.497341998">
        <ele>413.02</ele>
        <time>2013-12-22T10:13:25Z</time>
      </trkpt>
      <trkpt lat="41.613427068" lon="2.497340322">
        <ele>413.02</ele>
        <time>2013-12-22T10:13:33Z</time>
      </trkpt>
      <trkpt lat="41.613427654" lon="2.497334287">
        <ele>412.54</ele>
        <time>2013-12-22T10:13:47Z</time>
      </trkpt>
      <trkpt lat="41.613425475" lon="2.497337807">
        <ele>412.54</ele>
        <time>2013-12-22T10:14:01Z</time>
      </trkpt>
      <trkpt lat="41.613414746" lon="2.497336550">
        <ele>412.54</ele>
        <time>2013-12-22T10:14:13Z</time>
      </trkpt>
      <trkpt lat="41.613405526" lon="2.497327916">
        <ele>412.54</ele>
        <time>2013-12-22T10:14:23Z</time>
      </trkpt>
      <trkpt lat="41.613394378" lon="2.497317858">
        <ele>412.54</ele>
        <time>2013-12-22T10:14:38Z</time>
      </trkpt>
      <trkpt lat="41.613388176" lon="2.497306291">
        <ele>412.54</ele>
        <time>2013-12-22T10:14:54Z</time>
      </trkpt>
      <trkpt lat="41.613385494" lon="2.497301681">
        <ele>412.54</ele>
        <time>2013-12-22T10:15:07Z</time>
      </trkpt>
      <trkpt lat="41.613388762" lon="2.497304531">
        <ele>412.54</ele>
        <time>2013-12-22T10:15:20Z</time>
      </trkpt>
      <trkpt lat="41.613385494" lon="2.497305285">
        <ele>412.54</ele>
        <time>2013-12-22T10:15:31Z</time>
      </trkpt>
      <trkpt lat="41.613390187" lon="2.497308889">
        <ele>412.54</ele>
        <time>2013-12-22T10:15:44Z</time>
      </trkpt>
      <trkpt lat="41.613393372" lon="2.497307548">
        <ele>412.54</ele>
        <time>2013-12-22T10:16:00Z</time>
      </trkpt>
      <trkpt lat="41.613387589" lon="2.497329677">
        <ele>412.54</ele>
        <time>2013-12-22T10:16:09Z</time>
      </trkpt>
      <trkpt lat="41.613392199" lon="2.497330850">
        <ele>411.10</ele>
        <time>2013-12-22T10:16:19Z</time>
      </trkpt>
      <trkpt lat="41.613391696" lon="2.497331102">
        <ele>411.10</ele>
        <time>2013-12-22T10:16:31Z</time>
      </trkpt>
      <trkpt lat="41.613389349" lon="2.497345351">
        <ele>411.10</ele>
        <time>2013-12-22T10:16:41Z</time>
      </trkpt>
      <trkpt lat="41.613389349" lon="2.497352056">
        <ele>411.10</ele>
        <time>2013-12-22T10:16:53Z</time>
      </trkpt>
      <trkpt lat="41.613389768" lon="2.497350799">
        <ele>411.10</ele>
        <time>2013-12-22T10:17:04Z</time>
      </trkpt>
      <trkpt lat="41.613385996" lon="2.497355828">
        <ele>411.10</ele>
        <time>2013-12-22T10:17:16Z</time>
      </trkpt>
      <trkpt lat="41.613386248" lon="2.497361276">
        <ele>411.10</ele>
        <time>2013-12-22T10:17:30Z</time>
      </trkpt>
      <trkpt lat="41.613388511" lon="2.497365300">
        <ele>411.10</ele>
        <time>2013-12-22T10:17:43Z</time>
      </trkpt>
      <trkpt lat="41.613386667" lon="2.497373682">
        <ele>411.10</ele>
        <time>2013-12-22T10:17:49Z</time>
      </trkpt>
      <trkpt lat="41.613327323" lon="2.497394469">
        <ele>411.10</ele>
        <time>2013-12-22T10:17:54Z</time>
      </trkpt>
      <trkpt lat="41.613206121" lon="2.497413663">
        <ele>412.54</ele>
        <time>2013-12-22T10:18:01Z</time>
      </trkpt>
      <trkpt lat="41.613172342" lon="2.497423051">
        <ele>413.02</ele>
        <time>2013-12-22T10:18:03Z</time>
      </trkpt>
      <trkpt lat="41.613072597" lon="2.497378878">
        <ele>413.98</ele>
        <time>2013-12-22T10:18:09Z</time>
      </trkpt>
      <trkpt lat="41.612988443" lon="2.497232530">
        <ele>414.95</ele>
        <time>2013-12-22T10:18:17Z</time>
      </trkpt>
      <trkpt lat="41.612922058" lon="2.497074112">
        <ele>416.39</ele>
        <time>2013-12-22T10:18:24Z</time>
      </trkpt>
      <trkpt lat="41.612850728" lon="2.496921059">
        <ele>417.83</ele>
        <time>2013-12-22T10:18:31Z</time>
      </trkpt>
      <trkpt lat="41.612813680" lon="2.496753588">
        <ele>418.79</ele>
        <time>2013-12-22T10:18:38Z</time>
      </trkpt>
      <trkpt lat="41.612770849" lon="2.496583352">
        <ele>420.71</ele>
        <time>2013-12-22T10:18:45Z</time>
      </trkpt>
      <trkpt lat="41.612706727" lon="2.496421078">
        <ele>422.16</ele>
        <time>2013-12-22T10:18:52Z</time>
      </trkpt>
      <trkpt lat="41.612635062" lon="2.496257799">
        <ele>423.60</ele>
        <time>2013-12-22T10:18:59Z</time>
      </trkpt>
      <trkpt lat="41.612597092" lon="2.496074570">
        <ele>424.56</ele>
        <time>2013-12-22T10:19:06Z</time>
      </trkpt>
      <trkpt lat="41.612591224" lon="2.495874075">
        <ele>426.00</ele>
        <time>2013-12-22T10:19:14Z</time>
      </trkpt>
      <trkpt lat="41.612697172" lon="2.495849097">
        <ele>426.96</ele>
        <time>2013-12-22T10:19:21Z</time>
      </trkpt>
      <trkpt lat="41.612718629" lon="2.495845493">
        <ele>426.96</ele>
        <time>2013-12-22T10:19:22Z</time>
      </trkpt>
      <trkpt lat="41.612923651" lon="2.495842895">
        <ele>428.89</ele>
        <time>2013-12-22T10:19:32Z</time>
      </trkpt>
      <trkpt lat="41.613115932" lon="2.495898634">
        <ele>429.85</ele>
        <time>2013-12-22T10:19:41Z</time>
      </trkpt>
      <trkpt lat="41.613320953" lon="2.495956972">
        <ele>431.29</ele>
        <time>2013-12-22T10:19:50Z</time>
      </trkpt>
      <trkpt lat="41.613492027" lon="2.495917326">
        <ele>432.73</ele>
        <time>2013-12-22T10:19:58Z</time>
      </trkpt>
      <trkpt lat="41.613668467" lon="2.495839709">
        <ele>433.69</ele>
        <time>2013-12-22T10:20:06Z</time>
      </trkpt>
      <trkpt lat="41.613870051" lon="2.495772235">
        <ele>434.65</ele>
        <time>2013-12-22T10:20:15Z</time>
      </trkpt>
      <trkpt lat="41.614056046" lon="2.495710461">
        <ele>435.13</ele>
        <time>2013-12-22T10:20:23Z</time>
      </trkpt>
      <trkpt lat="41.614273640" lon="2.495668886">
        <ele>437.54</ele>
        <time>2013-12-22T10:20:33Z</time>
      </trkpt>
      <trkpt lat="41.614457874" lon="2.495658660">
        <ele>438.98</ele>
        <time>2013-12-22T10:20:42Z</time>
      </trkpt>
      <trkpt lat="41.614621405" lon="2.495609375">
        <ele>440.90</ele>
        <time>2013-12-22T10:20:50Z</time>
      </trkpt>
      <trkpt lat="41.614782421" lon="2.495517090">
        <ele>442.82</ele>
        <time>2013-12-22T10:20:58Z</time>
      </trkpt>
      <trkpt lat="41.614877137" lon="2.495467469">
        <ele>444.27</ele>
        <time>2013-12-22T10:21:04Z</time>
      </trkpt>
      <trkpt lat="41.614901025" lon="2.495463027">
        <ele>445.23</ele>
        <time>2013-12-22T10:21:06Z</time>
      </trkpt>
      <trkpt lat="41.614972104" lon="2.495441653">
        <ele>445.23</ele>
        <time>2013-12-22T10:21:11Z</time>
      </trkpt>
      <trkpt lat="41.615124319" lon="2.495493202">
        <ele>447.15</ele>
        <time>2013-12-22T10:21:20Z</time>
      </trkpt>
      <trkpt lat="41.615184166" lon="2.495554809">
        <ele>448.11</ele>
        <time>2013-12-22T10:21:25Z</time>
      </trkpt>
      <trkpt lat="41.615232781" lon="2.495608537">
        <ele>449.55</ele>
        <time>2013-12-22T10:21:29Z</time>
      </trkpt>
      <trkpt lat="41.615323641" lon="2.495734349">
        <ele>451.00</ele>
        <time>2013-12-22T10:21:37Z</time>
      </trkpt>
      <trkpt lat="41.615435120" lon="2.495886397">
        <ele>452.92</ele>
        <time>2013-12-22T10:21:47Z</time>
      </trkpt>
      <trkpt lat="41.615480969" lon="2.496022016">
        <ele>454.36</ele>
        <time>2013-12-22T10:21:55Z</time>
      </trkpt>
      <trkpt lat="41.615508546" lon="2.496197952">
        <ele>455.32</ele>
        <time>2013-12-22T10:22:03Z</time>
      </trkpt>
      <trkpt lat="41.615568979" lon="2.496361483">
        <ele>456.28</ele>
        <time>2013-12-22T10:22:12Z</time>
      </trkpt>
      <trkpt lat="41.615655816" lon="2.496521661">
        <ele>458.69</ele>
        <time>2013-12-22T10:22:21Z</time>
      </trkpt>
      <trkpt lat="41.615708957" lon="2.496633140">
        <ele>460.61</ele>
        <time>2013-12-22T10:22:28Z</time>
      </trkpt>
      <trkpt lat="41.615809121" lon="2.496758282">
        <ele>461.57</ele>
        <time>2013-12-22T10:22:36Z</time>
      </trkpt>
      <trkpt lat="41.615934682" lon="2.496809831">
        <ele>463.01</ele>
        <time>2013-12-22T10:22:45Z</time>
      </trkpt>
      <trkpt lat="41.616074324" lon="2.496739758">
        <ele>464.93</ele>
        <time>2013-12-22T10:22:55Z</time>
      </trkpt>
      <trkpt lat="41.616165184" lon="2.496644456">
        <ele>467.34</ele>
        <time>2013-12-22T10:23:03Z</time>
      </trkpt>
      <trkpt lat="41.616278843" lon="2.496469526">
        <ele>468.30</ele>
        <time>2013-12-22T10:23:13Z</time>
      </trkpt>
      <trkpt lat="41.616327709" lon="2.496287052">
        <ele>469.74</ele>
        <time>2013-12-22T10:23:22Z</time>
      </trkpt>
      <trkpt lat="41.616340031" lon="2.496157216">
        <ele>470.22</ele>
        <time>2013-12-22T10:23:28Z</time>
      </trkpt>
      <trkpt lat="41.616355369" lon="2.496054957">
        <ele>471.18</ele>
        <time>2013-12-22T10:23:33Z</time>
      </trkpt>
      <trkpt lat="41.616360399" lon="2.495874578">
        <ele>472.63</ele>
        <time>2013-12-22T10:23:41Z</time>
      </trkpt>
      <trkpt lat="41.616357046" lon="2.495690428">
        <ele>475.03</ele>
        <time>2013-12-22T10:23:51Z</time>
      </trkpt>
      <trkpt lat="41.616386802" lon="2.495542320">
        <ele>476.47</ele>
        <time>2013-12-22T10:23:58Z</time>
      </trkpt>
      <trkpt lat="41.616512279" lon="2.495450957">
        <ele>477.43</ele>
        <time>2013-12-22T10:24:07Z</time>
      </trkpt>
      <trkpt lat="41.616645635" lon="2.495484065">
        <ele>477.91</ele>
        <time>2013-12-22T10:24:14Z</time>
      </trkpt>
      <trkpt lat="41.616854176" lon="2.495567214">
        <ele>478.39</ele>
        <time>2013-12-22T10:24:23Z</time>
      </trkpt>
      <trkpt lat="41.617146453" lon="2.495673915">
        <ele>479.35</ele>
        <time>2013-12-22T10:24:34Z</time>
      </trkpt>
      <trkpt lat="41.617397827" lon="2.495671485">
        <ele>480.32</ele>
        <time>2013-12-22T10:24:44Z</time>
      </trkpt>
      <trkpt lat="41.617599831" lon="2.495667210">
        <ele>481.76</ele>
        <time>2013-12-22T10:24:53Z</time>
      </trkpt>
      <trkpt lat="41.617774929" lon="2.495667880">
        <ele>482.72</ele>
        <time>2013-12-22T10:25:02Z</time>
      </trkpt>
      <trkpt lat="41.617952290" lon="2.495730745">
        <ele>484.16</ele>
        <time>2013-12-22T10:25:10Z</time>
      </trkpt>
      <trkpt lat="41.618049939" lon="2.495740552">
        <ele>486.08</ele>
        <time>2013-12-22T10:25:16Z</time>
      </trkpt>
      <trkpt lat="41.618171560" lon="2.495740049">
        <ele>487.05</ele>
        <time>2013-12-22T10:25:23Z</time>
      </trkpt>
      <trkpt lat="41.618363087" lon="2.495726219">
        <ele>488.49</ele>
        <time>2013-12-22T10:25:32Z</time>
      </trkpt>
      <trkpt lat="41.618505076" lon="2.495648937">
        <ele>490.41</ele>
        <time>2013-12-22T10:25:39Z</time>
      </trkpt>
      <trkpt lat="41.618634157" lon="2.495499069">
        <ele>491.85</ele>
        <time>2013-12-22T10:25:48Z</time>
      </trkpt>
      <trkpt lat="41.618775812" lon="2.495322462">
        <ele>492.81</ele>
        <time>2013-12-22T10:25:57Z</time>
      </trkpt>
      <trkpt lat="41.618886369" lon="2.495191118">
        <ele>492.81</ele>
        <time>2013-12-22T10:26:04Z</time>
      </trkpt>
      <trkpt lat="41.619022994" lon="2.495090870">
        <ele>493.29</ele>
        <time>2013-12-22T10:26:11Z</time>
      </trkpt>
      <trkpt lat="41.619214101" lon="2.495102102">
        <ele>494.26</ele>
        <time>2013-12-22T10:26:19Z</time>
      </trkpt>
      <trkpt lat="41.619409148" lon="2.495178880">
        <ele>494.74</ele>
        <time>2013-12-22T10:26:27Z</time>
      </trkpt>
      <trkpt lat="41.619599837" lon="2.495277954">
        <ele>495.70</ele>
        <time>2013-12-22T10:26:35Z</time>
      </trkpt>
      <trkpt lat="41.619715674" lon="2.495351296">
        <ele>496.18</ele>
        <time>2013-12-22T10:26:40Z</time>
      </trkpt>
      <trkpt lat="41.619896640" lon="2.495288096">
        <ele>497.62</ele>
        <time>2013-12-22T10:26:48Z</time>
      </trkpt>
      <trkpt lat="41.620046341" lon="2.495160859">
        <ele>499.06</ele>
        <time>2013-12-22T10:26:56Z</time>
      </trkpt>
      <trkpt lat="41.620165028" lon="2.495052146">
        <ele>500.02</ele>
        <time>2013-12-22T10:27:03Z</time>
      </trkpt>
      <trkpt lat="41.620279777" lon="2.494891381">
        <ele>501.46</ele>
        <time>2013-12-22T10:27:10Z</time>
      </trkpt>
      <trkpt lat="41.620395782" lon="2.494805969">
        <ele>502.43</ele>
        <time>2013-12-22T10:27:17Z</time>
      </trkpt>
      <trkpt lat="41.620526540" lon="2.494872019">
        <ele>504.35</ele>
        <time>2013-12-22T10:27:24Z</time>
      </trkpt>
      <trkpt lat="41.620703230" lon="2.495020546">
        <ele>506.27</ele>
        <time>2013-12-22T10:27:34Z</time>
      </trkpt>
      <trkpt lat="41.620850836" lon="2.495151555">
        <ele>507.23</ele>
        <time>2013-12-22T10:27:42Z</time>
      </trkpt>
      <trkpt lat="41.621019647" lon="2.495260939">
        <ele>508.67</ele>
        <time>2013-12-22T10:27:51Z</time>
      </trkpt>
      <trkpt lat="41.621127690" lon="2.495221041">
        <ele>509.16</ele>
        <time>2013-12-22T10:27:57Z</time>
      </trkpt>
      <trkpt lat="41.621191644" lon="2.495052733">
        <ele>510.12</ele>
        <time>2013-12-22T10:28:04Z</time>
      </trkpt>
      <trkpt lat="41.621271188" lon="2.494885849">
        <ele>510.60</ele>
        <time>2013-12-22T10:28:11Z</time>
      </trkpt>
      <trkpt lat="41.621428181" lon="2.494692814">
        <ele>510.60</ele>
        <time>2013-12-22T10:28:19Z</time>
      </trkpt>
      <trkpt lat="41.621407310" lon="2.494491732">
        <ele>511.56</ele>
        <time>2013-12-22T10:28:25Z</time>
      </trkpt>
      <trkpt lat="41.621391552" lon="2.494288219">
        <ele>511.56</ele>
        <time>2013-12-22T10:28:30Z</time>
      </trkpt>
      <trkpt lat="41.621412004" lon="2.494087137">
        <ele>511.56</ele>
        <time>2013-12-22T10:28:35Z</time>
      </trkpt>
      <trkpt lat="41.621606548" lon="2.493847750">
        <ele>511.56</ele>
        <time>2013-12-22T10:28:44Z</time>
      </trkpt>
      <trkpt lat="41.621698749" lon="2.493753789">
        <ele>510.12</ele>
        <time>2013-12-22T10:28:47Z</time>
      </trkpt>
      <trkpt lat="41.621824394" lon="2.493615907">
        <ele>510.12</ele>
        <time>2013-12-22T10:28:51Z</time>
      </trkpt>
      <trkpt lat="41.622020949" lon="2.493624289">
        <ele>509.64</ele>
        <time>2013-12-22T10:28:56Z</time>
      </trkpt>
      <trkpt lat="41.622098482" lon="2.493756304">
        <ele>509.16</ele>
        <time>2013-12-22T10:28:59Z</time>
      </trkpt>
      <trkpt lat="41.622321943" lon="2.493982531">
        <ele>508.67</ele>
        <time>2013-12-22T10:29:06Z</time>
      </trkpt>
      <trkpt lat="41.622516404" lon="2.493961157">
        <ele>508.67</ele>
        <time>2013-12-22T10:29:11Z</time>
      </trkpt>
      <trkpt lat="41.622776326" lon="2.494082443">
        <ele>507.71</ele>
        <time>2013-12-22T10:29:17Z</time>
      </trkpt>
      <trkpt lat="41.622997776" lon="2.494386036">
        <ele>507.23</ele>
        <time>2013-12-22T10:29:23Z</time>
      </trkpt>
      <trkpt lat="41.623143873" lon="2.494861458">
        <ele>508.19</ele>
        <time>2013-12-22T10:29:32Z</time>
      </trkpt>
      <trkpt lat="41.623176311" lon="2.495038400">
        <ele>508.19</ele>
        <time>2013-12-22T10:29:35Z</time>
      </trkpt>
      <trkpt lat="41.623171868" lon="2.495246019">
        <ele>508.67</ele>
        <time>2013-12-22T10:29:39Z</time>
      </trkpt>
      <trkpt lat="41.623068939" lon="2.495518347">
        <ele>509.16</ele>
        <time>2013-12-22T10:29:46Z</time>
      </trkpt>
      <trkpt lat="41.623056030" lon="2.495652290">
        <ele>509.64</ele>
        <time>2013-12-22T10:29:49Z</time>
      </trkpt>
      <trkpt lat="41.623147058" lon="2.495765949">
        <ele>510.12</ele>
        <time>2013-12-22T10:29:53Z</time>
      </trkpt>
      <trkpt lat="41.623258370" lon="2.495880194">
        <ele>510.60</ele>
        <time>2013-12-22T10:30:00Z</time>
      </trkpt>
      <trkpt lat="41.623272619" lon="2.495940292">
        <ele>510.60</ele>
        <time>2013-12-22T10:30:05Z</time>
      </trkpt>
      <trkpt lat="41.623274379" lon="2.495944819">
        <ele>510.60</ele>
        <time>2013-12-22T10:30:14Z</time>
      </trkpt>
      <trkpt lat="41.623297848" lon="2.496023189">
        <ele>511.08</ele>
        <time>2013-12-22T10:30:19Z</time>
      </trkpt>
      <trkpt lat="41.623375632" lon="2.496172555">
        <ele>511.08</ele>
        <time>2013-12-22T10:30:26Z</time>
      </trkpt>
      <trkpt lat="41.623493985" lon="2.496322842">
        <ele>511.56</ele>
        <time>2013-12-22T10:30:33Z</time>
      </trkpt>
      <trkpt lat="41.623672771" lon="2.496406242">
        <ele>512.04</ele>
        <time>2013-12-22T10:30:40Z</time>
      </trkpt>
      <trkpt lat="41.623911739" lon="2.496347653">
        <ele>512.04</ele>
        <time>2013-12-22T10:30:47Z</time>
      </trkpt>
      <trkpt lat="41.623982901" lon="2.496302810">
        <ele>510.60</ele>
        <time>2013-12-22T10:30:49Z</time>
      </trkpt>
      <trkpt lat="41.624045849" lon="2.496263666">
        <ele>509.64</ele>
        <time>2013-12-22T10:30:53Z</time>
      </trkpt>
      <trkpt lat="41.624071582" lon="2.496272216">
        <ele>509.64</ele>
        <time>2013-12-22T10:31:08Z</time>
      </trkpt>
      <trkpt lat="41.624154060" lon="2.496130394">
        <ele>509.16</ele>
        <time>2013-12-22T10:31:14Z</time>
      </trkpt>
      <trkpt lat="41.624244249" lon="2.495917829">
        <ele>508.67</ele>
        <time>2013-12-22T10:31:19Z</time>
      </trkpt>
      <trkpt lat="41.624262689" lon="2.495808780">
        <ele>508.67</ele>
        <time>2013-12-22T10:31:21Z</time>
      </trkpt>
      <trkpt lat="41.624267802" lon="2.495694283">
        <ele>508.67</ele>
        <time>2013-12-22T10:31:23Z</time>
      </trkpt>
      <trkpt lat="41.624282135" lon="2.495523125">
        <ele>508.19</ele>
        <time>2013-12-22T10:31:26Z</time>
      </trkpt>
      <trkpt lat="41.624231089" lon="2.494984504">
        <ele>506.27</ele>
        <time>2013-12-22T10:31:34Z</time>
      </trkpt>
      <trkpt lat="41.624304096" lon="2.494578317">
        <ele>505.31</ele>
        <time>2013-12-22T10:31:40Z</time>
      </trkpt>
      <trkpt lat="41.624293870" lon="2.494319065">
        <ele>505.31</ele>
        <time>2013-12-22T10:31:44Z</time>
      </trkpt>
      <trkpt lat="41.624220947" lon="2.494099459">
        <ele>505.31</ele>
        <time>2013-12-22T10:31:48Z</time>
      </trkpt>
      <trkpt lat="41.624122628" lon="2.493494788">
        <ele>504.83</ele>
        <time>2013-12-22T10:31:58Z</time>
      </trkpt>
      <trkpt lat="41.624093375" lon="2.493121291">
        <ele>504.83</ele>
        <time>2013-12-22T10:32:05Z</time>
      </trkpt>
      <trkpt lat="41.624063619" lon="2.492943846">
        <ele>504.83</ele>
        <time>2013-12-22T10:32:08Z</time>
      </trkpt>
      <trkpt lat="41.624099997" lon="2.492697083">
        <ele>504.35</ele>
        <time>2013-12-22T10:32:12Z</time>
      </trkpt>
      <trkpt lat="41.624278447" lon="2.492181093">
        <ele>504.35</ele>
        <time>2013-12-22T10:32:21Z</time>
      </trkpt>
      <trkpt lat="41.624335109" lon="2.491829472">
        <ele>505.31</ele>
        <time>2013-12-22T10:32:28Z</time>
      </trkpt>
      <trkpt lat="41.624334857" lon="2.491315158">
        <ele>506.27</ele>
        <time>2013-12-22T10:32:37Z</time>
      </trkpt>
      <trkpt lat="41.624380371" lon="2.491054732">
        <ele>507.23</ele>
        <time>2013-12-22T10:32:43Z</time>
      </trkpt>
      <trkpt lat="41.624444744" lon="2.490813250">
        <ele>509.16</ele>
        <time>2013-12-22T10:32:49Z</time>
      </trkpt>
      <trkpt lat="41.624599223" lon="2.490529019">
        <ele>509.16</ele>
        <time>2013-12-22T10:32:56Z</time>
      </trkpt>
      <trkpt lat="41.624784630" lon="2.490256105">
        <ele>509.16</ele>
        <time>2013-12-22T10:33:03Z</time>
      </trkpt>
      <trkpt lat="41.625012953" lon="2.489939772">
        <ele>509.16</ele>
        <time>2013-12-22T10:33:11Z</time>
      </trkpt>
      <trkpt lat="41.625117643" lon="2.489739109">
        <ele>510.60</ele>
        <time>2013-12-22T10:33:18Z</time>
      </trkpt>
      <trkpt lat="41.625217220" lon="2.489510618">
        <ele>512.04</ele>
        <time>2013-12-22T10:33:27Z</time>
      </trkpt>
      <trkpt lat="41.625300956" lon="2.489233764">
        <ele>514.44</ele>
        <time>2013-12-22T10:33:37Z</time>
      </trkpt>
      <trkpt lat="41.625378907" lon="2.488990186">
        <ele>514.92</ele>
        <time>2013-12-22T10:33:45Z</time>
      </trkpt>
      <trkpt lat="41.625442023" lon="2.488787847">
        <ele>516.85</ele>
        <time>2013-12-22T10:33:53Z</time>
      </trkpt>
      <trkpt lat="41.625528943" lon="2.488583747">
        <ele>519.73</ele>
        <time>2013-12-22T10:34:03Z</time>
      </trkpt>
      <trkpt lat="41.625650481" lon="2.488464054">
        <ele>520.69</ele>
        <time>2013-12-22T10:34:11Z</time>
      </trkpt>
      <trkpt lat="41.625735893" lon="2.488307228">
        <ele>522.61</ele>
        <time>2013-12-22T10:34:19Z</time>
      </trkpt>
      <trkpt lat="41.625740838" lon="2.488137746">
        <ele>524.54</ele>
        <time>2013-12-22T10:34:27Z</time>
      </trkpt>
      <trkpt lat="41.625732288" lon="2.488092400">
        <ele>525.50</ele>
        <time>2013-12-22T10:34:29Z</time>
      </trkpt>
      <trkpt lat="41.625692474" lon="2.487940352">
        <ele>526.94</ele>
        <time>2013-12-22T10:34:36Z</time>
      </trkpt>
      <trkpt lat="41.625589461" lon="2.487741366">
        <ele>527.90</ele>
        <time>2013-12-22T10:34:46Z</time>
      </trkpt>
      <trkpt lat="41.625483765" lon="2.487601388">
        <ele>528.86</ele>
        <time>2013-12-22T10:34:54Z</time>
      </trkpt>
      <trkpt lat="41.625336076" lon="2.487436600">
        <ele>528.86</ele>
        <time>2013-12-22T10:35:03Z</time>
      </trkpt>
      <trkpt lat="41.625099287" lon="2.487233842">
        <ele>529.82</ele>
        <time>2013-12-22T10:35:15Z</time>
      </trkpt>
      <trkpt lat="41.624958639" lon="2.487085231">
        <ele>529.82</ele>
        <time>2013-12-22T10:35:22Z</time>
      </trkpt>
      <trkpt lat="41.624919411" lon="2.487030916">
        <ele>530.30</ele>
        <time>2013-12-22T10:35:28Z</time>
      </trkpt>
      <trkpt lat="41.624910275" lon="2.487034520">
        <ele>530.30</ele>
        <time>2013-12-22T10:35:38Z</time>
      </trkpt>
      <trkpt lat="41.624893679" lon="2.487028066">
        <ele>530.30</ele>
        <time>2013-12-22T10:35:46Z</time>
      </trkpt>
      <trkpt lat="41.624891751" lon="2.487015409">
        <ele>530.30</ele>
        <time>2013-12-22T10:35:53Z</time>
      </trkpt>
      <trkpt lat="41.624886051" lon="2.486995461">
        <ele>531.27</ele>
        <time>2013-12-22T10:35:55Z</time>
      </trkpt>
      <trkpt lat="41.624877502" lon="2.486846849">
        <ele>532.71</ele>
        <time>2013-12-22T10:36:04Z</time>
      </trkpt>
      <trkpt lat="41.624872054" lon="2.486705195">
        <ele>533.67</ele>
        <time>2013-12-22T10:36:11Z</time>
      </trkpt>
      <trkpt lat="41.624879178" lon="2.486524230">
        <ele>535.11</ele>
        <time>2013-12-22T10:36:20Z</time>
      </trkpt>
      <trkpt lat="41.624867863" lon="2.486410488">
        <ele>536.55</ele>
        <time>2013-12-22T10:36:25Z</time>
      </trkpt>
      <trkpt lat="41.624876161" lon="2.486240838">
        <ele>538.96</ele>
        <time>2013-12-22T10:36:34Z</time>
      </trkpt>
      <trkpt lat="41.624878424" lon="2.486204628">
        <ele>538.96</ele>
        <time>2013-12-22T10:36:36Z</time>
      </trkpt>
      <trkpt lat="41.624881609" lon="2.486013018">
        <ele>541.36</ele>
        <time>2013-12-22T10:36:46Z</time>
      </trkpt>
      <trkpt lat="41.624883369" lon="2.485935569">
        <ele>542.80</ele>
        <time>2013-12-22T10:36:51Z</time>
      </trkpt>
      <trkpt lat="41.624878592" lon="2.485902293">
        <ele>543.28</ele>
        <time>2013-12-22T10:36:53Z</time>
      </trkpt>
      <trkpt lat="41.624877837" lon="2.485832807">
        <ele>544.24</ele>
        <time>2013-12-22T10:36:57Z</time>
      </trkpt>
      <trkpt lat="41.624893595" lon="2.485649159">
        <ele>546.65</ele>
        <time>2013-12-22T10:37:08Z</time>
      </trkpt>
      <trkpt lat="41.624904827" lon="2.485581098">
        <ele>547.13</ele>
        <time>2013-12-22T10:37:12Z</time>
      </trkpt>
      <trkpt lat="41.624943970" lon="2.485403653">
        <ele>549.05</ele>
        <time>2013-12-22T10:37:22Z</time>
      </trkpt>
      <trkpt lat="41.624944976" lon="2.485386135">
        <ele>549.05</ele>
        <time>2013-12-22T10:37:23Z</time>
      </trkpt>
      <trkpt lat="41.624940869" lon="2.485306256">
        <ele>550.01</ele>
        <time>2013-12-22T10:37:27Z</time>
      </trkpt>
      <trkpt lat="41.624957968" lon="2.485190250">
        <ele>550.97</ele>
        <time>2013-12-22T10:37:34Z</time>
      </trkpt>
      <trkpt lat="41.624967104" lon="2.485136690">
        <ele>551.45</ele>
        <time>2013-12-22T10:37:37Z</time>
      </trkpt>
      <trkpt lat="41.625008427" lon="2.484974919">
        <ele>551.45</ele>
        <time>2013-12-22T10:37:44Z</time>
      </trkpt>
      <trkpt lat="41.625030220" lon="2.484692952">
        <ele>551.45</ele>
        <time>2013-12-22T10:37:53Z</time>
      </trkpt>
      <trkpt lat="41.625005242" lon="2.484459516">
        <ele>552.41</ele>
        <time>2013-12-22T10:38:00Z</time>
      </trkpt>
      <trkpt lat="41.625065424" lon="2.484258937">
        <ele>553.38</ele>
        <time>2013-12-22T10:38:08Z</time>
      </trkpt>
      <trkpt lat="41.625121415" lon="2.484039163">
        <ele>554.34</ele>
        <time>2013-12-22T10:38:16Z</time>
      </trkpt>
      <trkpt lat="41.625148489" lon="2.483905472">
        <ele>555.78</ele>
        <time>2013-12-22T10:38:22Z</time>
      </trkpt>
      <trkpt lat="41.625208755" lon="2.483903376">
        <ele>556.74</ele>
        <time>2013-12-22T10:38:26Z</time>
      </trkpt>
      <trkpt lat="41.625344290" lon="2.483946208">
        <ele>559.14</ele>
        <time>2013-12-22T10:38:36Z</time>
      </trkpt>
      <trkpt lat="41.625433809" lon="2.484029943">
        <ele>559.62</ele>
        <time>2013-12-22T10:38:43Z</time>
      </trkpt>
      <trkpt lat="41.625458284" lon="2.484083001">
        <ele>559.62</ele>
        <time>2013-12-22T10:38:46Z</time>
      </trkpt>
      <trkpt lat="41.625442274" lon="2.484195318">
        <ele>560.11</ele>
        <time>2013-12-22T10:38:51Z</time>
      </trkpt>
      <trkpt lat="41.625382679" lon="2.484287184">
        <ele>560.59</ele>
        <time>2013-12-22T10:38:57Z</time>
      </trkpt>
      <trkpt lat="41.625246138" lon="2.484386090">
        <ele>562.51</ele>
        <time>2013-12-22T10:39:07Z</time>
      </trkpt>
      <trkpt lat="41.625219903" lon="2.484477034">
        <ele>563.47</ele>
        <time>2013-12-22T10:39:12Z</time>
      </trkpt>
      <trkpt lat="41.625284695" lon="2.484537803">
        <ele>563.47</ele>
        <time>2013-12-22T10:39:17Z</time>
      </trkpt>
      <trkpt lat="41.625443867" lon="2.484520285">
        <ele>565.87</ele>
        <time>2013-12-22T10:39:28Z</time>
      </trkpt>
      <trkpt lat="41.625565405" lon="2.484454235">
        <ele>568.28</ele>
        <time>2013-12-22T10:39:37Z</time>
      </trkpt>
      <trkpt lat="41.625706640" lon="2.484353904">
        <ele>569.24</ele>
        <time>2013-12-22T10:39:46Z</time>
      </trkpt>
      <trkpt lat="41.625835972" lon="2.484275533">
        <ele>570.20</ele>
        <time>2013-12-22T10:39:54Z</time>
      </trkpt>
      <trkpt lat="41.625850138" lon="2.484265307">
        <ele>570.20</ele>
        <time>2013-12-22T10:39:55Z</time>
      </trkpt>
      <trkpt lat="41.625959522" lon="2.484179225">
        <ele>571.64</ele>
        <time>2013-12-22T10:40:03Z</time>
      </trkpt>
      <trkpt lat="41.626092375" lon="2.484038912">
        <ele>574.04</ele>
        <time>2013-12-22T10:40:14Z</time>
      </trkpt>
      <trkpt lat="41.626196227" lon="2.483898264">
        <ele>576.93</ele>
        <time>2013-12-22T10:40:24Z</time>
      </trkpt>
      <trkpt lat="41.626246770" lon="2.483851325">
        <ele>578.37</ele>
        <time>2013-12-22T10:40:29Z</time>
      </trkpt>
      <trkpt lat="41.626352465" lon="2.483768344">
        <ele>579.33</ele>
        <time>2013-12-22T10:40:38Z</time>
      </trkpt>
      <trkpt lat="41.626470147" lon="2.483664073">
        <ele>579.81</ele>
        <time>2013-12-22T10:40:46Z</time>
      </trkpt>
      <trkpt lat="41.626521025" lon="2.483554689">
        <ele>579.81</ele>
        <time>2013-12-22T10:40:49Z</time>
      </trkpt>
      <trkpt lat="41.626650693" lon="2.483084129">
        <ele>578.37</ele>
        <time>2013-12-22T10:40:58Z</time>
      </trkpt>
      <trkpt lat="41.626751276" lon="2.483080693">
        <ele>578.85</ele>
        <time>2013-12-22T10:41:02Z</time>
      </trkpt>
      <trkpt lat="41.626884968" lon="2.483166859">
        <ele>579.81</ele>
        <time>2013-12-22T10:41:09Z</time>
      </trkpt>
      <trkpt lat="41.627029723" lon="2.483142803">
        <ele>581.73</ele>
        <time>2013-12-22T10:41:17Z</time>
      </trkpt>
      <trkpt lat="41.627137263" lon="2.483032245">
        <ele>584.62</ele>
        <time>2013-12-22T10:41:26Z</time>
      </trkpt>
      <trkpt lat="41.627258801" lon="2.482938619">
        <ele>586.54</ele>
        <time>2013-12-22T10:41:35Z</time>
      </trkpt>
      <trkpt lat="41.627294675" lon="2.482901823">
        <ele>587.02</ele>
        <time>2013-12-22T10:41:38Z</time>
      </trkpt>
      <trkpt lat="41.627431887" lon="2.482833594">
        <ele>589.91</ele>
        <time>2013-12-22T10:41:48Z</time>
      </trkpt>
      <trkpt lat="41.627507240" lon="2.482855136">
        <ele>590.87</ele>
        <time>2013-12-22T10:41:53Z</time>
      </trkpt>
      <trkpt lat="41.627654678" lon="2.482956808">
        <ele>592.79</ele>
        <time>2013-12-22T10:42:03Z</time>
      </trkpt>
      <trkpt lat="41.627667502" lon="2.482977176">
        <ele>592.79</ele>
        <time>2013-12-22T10:42:04Z</time>
      </trkpt>
      <trkpt lat="41.627702706" lon="2.483039118">
        <ele>593.27</ele>
        <time>2013-12-22T10:42:08Z</time>
      </trkpt>
      <trkpt lat="41.627773952" lon="2.483251683">
        <ele>593.27</ele>
        <time>2013-12-22T10:42:17Z</time>
      </trkpt>
      <trkpt lat="41.627779233" lon="2.483263167">
        <ele>593.27</ele>
        <time>2013-12-22T10:42:23Z</time>
      </trkpt>
      <trkpt lat="41.627778059" lon="2.483261490">
        <ele>593.27</ele>
        <time>2013-12-22T10:42:37Z</time>
      </trkpt>
      <trkpt lat="41.627773366" lon="2.483240033">
        <ele>593.27</ele>
        <time>2013-12-22T10:42:57Z</time>
      </trkpt>
      <trkpt lat="41.627784011" lon="2.483273560">
        <ele>593.27</ele>
        <time>2013-12-22T10:43:12Z</time>
      </trkpt>
      <trkpt lat="41.627786358" lon="2.483285127">
        <ele>593.27</ele>
        <time>2013-12-22T10:43:23Z</time>
      </trkpt>
      <trkpt lat="41.627813347" lon="2.483345728">
        <ele>593.27</ele>
        <time>2013-12-22T10:43:35Z</time>
      </trkpt>
      <trkpt lat="41.627910074" lon="2.483488053">
        <ele>591.35</ele>
        <time>2013-12-22T10:43:39Z</time>
      </trkpt>
      <trkpt lat="41.628131524" lon="2.483631468">
        <ele>589.91</ele>
        <time>2013-12-22T10:43:44Z</time>
      </trkpt>
      <trkpt lat="41.628211488" lon="2.483604226">
        <ele>588.46</ele>
        <time>2013-12-22T10:43:46Z</time>
      </trkpt>
      <trkpt lat="41.628375857" lon="2.483540943">
        <ele>586.54</ele>
        <time>2013-12-22T10:43:52Z</time>
      </trkpt>
      <trkpt lat="41.628536035" lon="2.483516635">
        <ele>583.66</ele>
        <time>2013-12-22T10:43:57Z</time>
      </trkpt>
      <trkpt lat="41.628638127" lon="2.483556617">
        <ele>582.22</ele>
        <time>2013-12-22T10:44:01Z</time>
      </trkpt>
      <trkpt lat="41.628710462" lon="2.483646136">
        <ele>581.73</ele>
        <time>2013-12-22T10:44:06Z</time>
      </trkpt>
      <trkpt lat="41.628782295" lon="2.483700870">
        <ele>580.77</ele>
        <time>2013-12-22T10:44:11Z</time>
      </trkpt>
      <trkpt lat="41.628975917" lon="2.483795501">
        <ele>579.81</ele>
        <time>2013-12-22T10:44:17Z</time>
      </trkpt>
      <trkpt lat="41.629224357" lon="2.483939167">
        <ele>579.33</ele>
        <time>2013-12-22T10:44:23Z</time>
      </trkpt>
      <trkpt lat="41.629399287" lon="2.484003037">
        <ele>578.85</ele>
        <time>2013-12-22T10:44:27Z</time>
      </trkpt>
      <trkpt lat="41.629752165" lon="2.484033128">
        <ele>578.37</ele>
        <time>2013-12-22T10:44:36Z</time>
      </trkpt>
      <trkpt lat="41.630090710" lon="2.484185511">
        <ele>576.93</ele>
        <time>2013-12-22T10:44:43Z</time>
      </trkpt>
      <trkpt lat="41.630150976" lon="2.484223984">
        <ele>575.97</ele>
        <time>2013-12-22T10:44:44Z</time>
      </trkpt>
      <trkpt lat="41.630375695" lon="2.484486757">
        <ele>574.53</ele>
        <time>2013-12-22T10:44:48Z</time>
      </trkpt>
      <trkpt lat="41.630472003" lon="2.484668728">
        <ele>573.08</ele>
        <time>2013-12-22T10:44:50Z</time>
      </trkpt>
      <trkpt lat="41.630833850" lon="2.485116657">
        <ele>571.64</ele>
        <time>2013-12-22T10:44:56Z</time>
      </trkpt>
      <trkpt lat="41.630898893" lon="2.485179270">
        <ele>571.64</ele>
        <time>2013-12-22T10:44:57Z</time>
      </trkpt>
      <trkpt lat="41.631208605" lon="2.485436678">
        <ele>571.16</ele>
        <time>2013-12-22T10:45:02Z</time>
      </trkpt>
      <trkpt lat="41.631348415" lon="2.485589732">
        <ele>571.16</ele>
        <time>2013-12-22T10:45:06Z</time>
      </trkpt>
      <trkpt lat="41.631362832" lon="2.485716717">
        <ele>570.68</ele>
        <time>2013-12-22T10:45:09Z</time>
      </trkpt>
      <trkpt lat="41.631403568" lon="2.486071440">
        <ele>568.76</ele>
        <time>2013-12-22T10:45:16Z</time>
      </trkpt>
      <trkpt lat="41.631430558" lon="2.486214854">
        <ele>566.83</ele>
        <time>2013-12-22T10:45:19Z</time>
      </trkpt>
      <trkpt lat="41.631541450" lon="2.486489110">
        <ele>564.91</ele>
        <time>2013-12-22T10:45:25Z</time>
      </trkpt>
      <trkpt lat="41.631733312" lon="2.486535462">
        <ele>561.07</ele>
        <time>2013-12-22T10:45:31Z</time>
      </trkpt>
      <trkpt lat="41.631921402" lon="2.486377966">
        <ele>558.66</ele>
        <time>2013-12-22T10:45:37Z</time>
      </trkpt>
      <trkpt lat="41.631952331" lon="2.486345360">
        <ele>558.66</ele>
        <time>2013-12-22T10:45:38Z</time>
      </trkpt>
      <trkpt lat="41.632079568" lon="2.486296242">
        <ele>556.26</ele>
        <time>2013-12-22T10:45:41Z</time>
      </trkpt>
      <trkpt lat="41.632236813" lon="2.486197755">
        <ele>554.82</ele>
        <time>2013-12-22T10:45:45Z</time>
      </trkpt>
      <trkpt lat="41.632293307" lon="2.486134471">
        <ele>554.34</ele>
        <time>2013-12-22T10:45:47Z</time>
      </trkpt>
      <trkpt lat="41.632369917" lon="2.486237737">
        <ele>553.86</ele>
        <time>2013-12-22T10:45:52Z</time>
      </trkpt>
      <trkpt lat="41.632417191" lon="2.486422977">
        <ele>550.97</ele>
        <time>2013-12-22T10:45:58Z</time>
      </trkpt>
      <trkpt lat="41.632477290" lon="2.486540910">
        <ele>548.09</ele>
        <time>2013-12-22T10:46:04Z</time>
      </trkpt>
      <trkpt lat="41.632533867" lon="2.486685917">
        <ele>547.61</ele>
        <time>2013-12-22T10:46:09Z</time>
      </trkpt>
      <trkpt lat="41.632651717" lon="2.486762444">
        <ele>545.69</ele>
        <time>2013-12-22T10:46:14Z</time>
      </trkpt>
      <trkpt lat="41.632814158" lon="2.486933183">
        <ele>543.28</ele>
        <time>2013-12-22T10:46:20Z</time>
      </trkpt>
      <trkpt lat="41.632900911" lon="2.487133678">
        <ele>539.92</ele>
        <time>2013-12-22T10:46:26Z</time>
      </trkpt>
      <trkpt lat="41.632930834" lon="2.487343896">
        <ele>537.51</ele>
        <time>2013-12-22T10:46:32Z</time>
      </trkpt>
      <trkpt lat="41.632932259" lon="2.487437690">
        <ele>536.55</ele>
        <time>2013-12-22T10:46:34Z</time>
      </trkpt>
      <trkpt lat="41.633048852" lon="2.487693757">
        <ele>533.19</ele>
        <time>2013-12-22T10:46:41Z</time>
      </trkpt>
      <trkpt lat="41.633144824" lon="2.487842703">
        <ele>531.27</ele>
        <time>2013-12-22T10:46:47Z</time>
      </trkpt>
      <trkpt lat="41.633213891" lon="2.488042528">
        <ele>528.86</ele>
        <time>2013-12-22T10:46:53Z</time>
      </trkpt>
      <trkpt lat="41.633365436" lon="2.488364728">
        <ele>527.90</ele>
        <time>2013-12-22T10:47:00Z</time>
      </trkpt>
      <trkpt lat="41.633532487" lon="2.488682235">
        <ele>526.46</ele>
        <time>2013-12-22T10:47:08Z</time>
      </trkpt>
      <trkpt lat="41.633610691" lon="2.488845933">
        <ele>526.46</ele>
        <time>2013-12-22T10:47:13Z</time>
      </trkpt>
      <trkpt lat="41.633595519" lon="2.489039639">
        <ele>525.98</ele>
        <time>2013-12-22T10:47:20Z</time>
      </trkpt>
      <trkpt lat="41.633599459" lon="2.489377430">
        <ele>525.98</ele>
        <time>2013-12-22T10:47:28Z</time>
      </trkpt>
      <trkpt lat="41.633630304" lon="2.489525203">
        <ele>525.02</ele>
        <time>2013-12-22T10:47:31Z</time>
      </trkpt>
      <trkpt lat="41.633519831" lon="2.489681525">
        <ele>522.61</ele>
        <time>2013-12-22T10:47:36Z</time>
      </trkpt>
      <trkpt lat="41.633481190" lon="2.489683202">
        <ele>521.65</ele>
        <time>2013-12-22T10:47:37Z</time>
      </trkpt>
      <trkpt lat="41.633369376" lon="2.489659481">
        <ele>520.21</ele>
        <time>2013-12-22T10:47:40Z</time>
      </trkpt>
      <trkpt lat="41.633130408" lon="2.489654368">
        <ele>515.40</ele>
        <time>2013-12-22T10:47:45Z</time>
      </trkpt>
      <trkpt lat="41.633038710" lon="2.489611704">
        <ele>513.96</ele>
        <time>2013-12-22T10:47:47Z</time>
      </trkpt>
      <trkpt lat="41.632873670" lon="2.489530567">
        <ele>512.04</ele>
        <time>2013-12-22T10:47:51Z</time>
      </trkpt>
      <trkpt lat="41.632770070" lon="2.489508104">
        <ele>508.67</ele>
        <time>2013-12-22T10:47:54Z</time>
      </trkpt>
      <trkpt lat="41.632720700" lon="2.489530819">
        <ele>506.75</ele>
        <time>2013-12-22T10:47:56Z</time>
      </trkpt>
      <trkpt lat="41.632623386" lon="2.489741623">
        <ele>502.91</ele>
        <time>2013-12-22T10:48:02Z</time>
      </trkpt>
      <trkpt lat="41.632611735" lon="2.489785796">
        <ele>502.91</ele>
        <time>2013-12-22T10:48:03Z</time>
      </trkpt>
      <trkpt lat="41.632631014" lon="2.490013700">
        <ele>499.54</ele>
        <time>2013-12-22T10:48:08Z</time>
      </trkpt>
      <trkpt lat="41.632640988" lon="2.490058962">
        <ele>499.06</ele>
        <time>2013-12-22T10:48:09Z</time>
      </trkpt>
      <trkpt lat="41.632577705" lon="2.490259541">
        <ele>495.22</ele>
        <time>2013-12-22T10:48:15Z</time>
      </trkpt>
      <trkpt lat="41.632499418" lon="2.490290135">
        <ele>494.26</ele>
        <time>2013-12-22T10:48:19Z</time>
      </trkpt>
      <trkpt lat="41.632433452" lon="2.490213860">
        <ele>494.26</ele>
        <time>2013-12-22T10:48:22Z</time>
      </trkpt>
      <trkpt lat="41.632351477" lon="2.489926780">
        <ele>494.26</ele>
        <time>2013-12-22T10:48:29Z</time>
      </trkpt>
      <trkpt lat="41.632331277" lon="2.489830723">
        <ele>494.26</ele>
        <time>2013-12-22T10:48:31Z</time>
      </trkpt>
      <trkpt lat="41.632215858" lon="2.489769954">
        <ele>493.29</ele>
        <time>2013-12-22T10:48:36Z</time>
      </trkpt>
      <trkpt lat="41.632152994" lon="2.489844972">
        <ele>494.26</ele>
        <time>2013-12-22T10:48:41Z</time>
      </trkpt>
      <trkpt lat="41.632045370" lon="2.490008587">
        <ele>493.29</ele>
        <time>2013-12-22T10:48:47Z</time>
      </trkpt>
      <trkpt lat="41.631913774" lon="2.490034739">
        <ele>490.89</ele>
        <time>2013-12-22T10:48:51Z</time>
      </trkpt>
      <trkpt lat="41.631754099" lon="2.490086120">
        <ele>488.49</ele>
        <time>2013-12-22T10:48:56Z</time>
      </trkpt>
      <trkpt lat="41.631446232" lon="2.490101459">
        <ele>485.60</ele>
        <time>2013-12-22T10:49:03Z</time>
      </trkpt>
      <trkpt lat="41.631252023" lon="2.490116295">
        <ele>483.20</ele>
        <time>2013-12-22T10:49:09Z</time>
      </trkpt>
      <trkpt lat="41.631051444" lon="2.489961900">
        <ele>480.80</ele>
        <time>2013-12-22T10:49:15Z</time>
      </trkpt>
      <trkpt lat="41.630902498" lon="2.489992829">
        <ele>479.84</ele>
        <time>2013-12-22T10:49:20Z</time>
      </trkpt>
      <trkpt lat="41.630780206" lon="2.490145464">
        <ele>479.84</ele>
        <time>2013-12-22T10:49:26Z</time>
      </trkpt>
      <trkpt lat="41.630728992" lon="2.490326177">
        <ele>479.84</ele>
        <time>2013-12-22T10:49:30Z</time>
      </trkpt>
      <trkpt lat="41.630544842" lon="2.490427850">
        <ele>479.35</ele>
        <time>2013-12-22T10:49:37Z</time>
      </trkpt>
      <trkpt lat="41.630526485" lon="2.490436902">
        <ele>478.87</ele>
        <time>2013-12-22T10:49:38Z</time>
      </trkpt>
      <trkpt lat="41.630461442" lon="2.490497084">
        <ele>478.87</ele>
        <time>2013-12-22T10:49:44Z</time>
      </trkpt>
      <trkpt lat="41.630447360" lon="2.490651563">
        <ele>477.91</ele>
        <time>2013-12-22T10:49:48Z</time>
      </trkpt>
      <trkpt lat="41.630409977" lon="2.490900338">
        <ele>475.51</ele>
        <time>2013-12-22T10:49:55Z</time>
      </trkpt>
      <trkpt lat="41.630272179" lon="2.491092535">
        <ele>474.07</ele>
        <time>2013-12-22T10:50:01Z</time>
      </trkpt>
      <trkpt lat="41.630104792" lon="2.491208289">
        <ele>473.59</ele>
        <time>2013-12-22T10:50:07Z</time>
      </trkpt>
      <trkpt lat="41.629940842" lon="2.491244666">
        <ele>473.59</ele>
        <time>2013-12-22T10:50:14Z</time>
      </trkpt>
      <trkpt lat="41.629823998" lon="2.491111143">
        <ele>475.03</ele>
        <time>2013-12-22T10:50:23Z</time>
      </trkpt>
      <trkpt lat="41.629725846" lon="2.491000502">
        <ele>475.03</ele>
        <time>2013-12-22T10:50:29Z</time>
      </trkpt>
      <trkpt lat="41.629615456" lon="2.490887597">
        <ele>475.99</ele>
        <time>2013-12-22T10:50:36Z</time>
      </trkpt>
      <trkpt lat="41.629507749" lon="2.490795229">
        <ele>476.95</ele>
        <time>2013-12-22T10:50:43Z</time>
      </trkpt>
      <trkpt lat="41.629461481" lon="2.490759689">
        <ele>476.95</ele>
        <time>2013-12-22T10:50:46Z</time>
      </trkpt>
      <trkpt lat="41.629289233" lon="2.490773436">
        <ele>476.95</ele>
        <time>2013-12-22T10:50:53Z</time>
      </trkpt>
      <trkpt lat="41.629250257" lon="2.490768071">
        <ele>476.95</ele>
        <time>2013-12-22T10:50:55Z</time>
      </trkpt>
      <trkpt lat="41.629168114" lon="2.490655670">
        <ele>476.95</ele>
        <time>2013-12-22T10:51:01Z</time>
      </trkpt>
      <trkpt lat="41.629142549" lon="2.490416367">
        <ele>475.51</ele>
        <time>2013-12-22T10:51:08Z</time>
      </trkpt>
      <trkpt lat="41.629146573" lon="2.490166921">
        <ele>472.63</ele>
        <time>2013-12-22T10:51:13Z</time>
      </trkpt>
      <trkpt lat="41.629075746" lon="2.489964917">
        <ele>470.22</ele>
        <time>2013-12-22T10:51:19Z</time>
      </trkpt>
      <trkpt lat="41.628964602" lon="2.489828628">
        <ele>466.38</ele>
        <time>2013-12-22T10:51:24Z</time>
      </trkpt>
      <trkpt lat="41.628802915" lon="2.489720585">
        <ele>463.01</ele>
        <time>2013-12-22T10:51:29Z</time>
      </trkpt>
      <trkpt lat="41.628747510" lon="2.489639113">
        <ele>462.05</ele>
        <time>2013-12-22T10:51:32Z</time>
      </trkpt>
      <trkpt lat="41.628677438" lon="2.489550097">
        <ele>460.13</ele>
        <time>2013-12-22T10:51:36Z</time>
      </trkpt>
      <trkpt lat="41.628638629" lon="2.489365695">
        <ele>460.13</ele>
        <time>2013-12-22T10:51:44Z</time>
      </trkpt>
      <trkpt lat="41.628632427" lon="2.489317499">
        <ele>461.09</ele>
        <time>2013-12-22T10:51:46Z</time>
      </trkpt>
      <trkpt lat="41.628633936" lon="2.489293275">
        <ele>461.09</ele>
        <time>2013-12-22T10:51:47Z</time>
      </trkpt>
      <trkpt lat="41.628691100" lon="2.489078112">
        <ele>461.09</ele>
        <time>2013-12-22T10:51:54Z</time>
      </trkpt>
      <trkpt lat="41.628706188" lon="2.489035364">
        <ele>461.09</ele>
        <time>2013-12-22T10:51:55Z</time>
      </trkpt>
      <trkpt lat="41.628659333" lon="2.488886250">
        <ele>459.65</ele>
        <time>2013-12-22T10:51:58Z</time>
      </trkpt>
      <trkpt lat="41.628617004" lon="2.488854734">
        <ele>459.65</ele>
        <time>2013-12-22T10:51:59Z</time>
      </trkpt>
      <trkpt lat="41.628475434" lon="2.488763288">
        <ele>457.72</ele>
        <time>2013-12-22T10:52:02Z</time>
      </trkpt>
      <trkpt lat="41.628374935" lon="2.488547035">
        <ele>454.84</ele>
        <time>2013-12-22T10:52:07Z</time>
      </trkpt>
      <trkpt lat="41.628380467" lon="2.488483500">
        <ele>454.36</ele>
        <time>2013-12-22T10:52:08Z</time>
      </trkpt>
      <trkpt lat="41.628330846" lon="2.488202622">
        <ele>452.92</ele>
        <time>2013-12-22T10:52:13Z</time>
      </trkpt>
      <trkpt lat="41.628135799" lon="2.488145793">
        <ele>452.44</ele>
        <time>2013-12-22T10:52:19Z</time>
      </trkpt>
      <trkpt lat="41.628108558" lon="2.488111679">
        <ele>452.44</ele>
        <time>2013-12-22T10:52:20Z</time>
      </trkpt>
      <trkpt lat="41.628039072" lon="2.487968935">
        <ele>451.48</ele>
        <time>2013-12-22T10:52:23Z</time>
      </trkpt>
      <trkpt lat="41.627883839" lon="2.487788892">
        <ele>450.03</ele>
        <time>2013-12-22T10:52:29Z</time>
      </trkpt>
      <trkpt lat="41.627839834" lon="2.487837590">
        <ele>450.03</ele>
        <time>2013-12-22T10:52:31Z</time>
      </trkpt>
      <trkpt lat="41.627712429" lon="2.488103045">
        <ele>450.52</ele>
        <time>2013-12-22T10:52:39Z</time>
      </trkpt>
      <trkpt lat="41.627641099" lon="2.488405129">
        <ele>448.59</ele>
        <time>2013-12-22T10:52:44Z</time>
      </trkpt>
      <trkpt lat="41.627466672" lon="2.488864122">
        <ele>446.19</ele>
        <time>2013-12-22T10:52:49Z</time>
      </trkpt>
      <trkpt lat="41.627385367" lon="2.488991611">
        <ele>445.71</ele>
        <time>2013-12-22T10:52:51Z</time>
      </trkpt>
      <trkpt lat="41.627208341" lon="2.489044501">
        <ele>445.71</ele>
        <time>2013-12-22T10:52:55Z</time>
      </trkpt>
      <trkpt lat="41.627144304" lon="2.489194118">
        <ele>445.23</ele>
        <time>2013-12-22T10:52:58Z</time>
      </trkpt>
      <trkpt lat="41.627155033" lon="2.489316745">
        <ele>445.23</ele>
        <time>2013-12-22T10:53:00Z</time>
      </trkpt>
      <trkpt lat="41.627229380" lon="2.489700049">
        <ele>446.67</ele>
        <time>2013-12-22T10:53:08Z</time>
      </trkpt>
      <trkpt lat="41.627212365" lon="2.489924098">
        <ele>446.67</ele>
        <time>2013-12-22T10:53:13Z</time>
      </trkpt>
      <trkpt lat="41.627109938" lon="2.489918398">
        <ele>447.63</ele>
        <time>2013-12-22T10:53:18Z</time>
      </trkpt>
      <trkpt lat="41.627092168" lon="2.489891995">
        <ele>448.11</ele>
        <time>2013-12-22T10:53:19Z</time>
      </trkpt>
      <trkpt lat="41.626999967" lon="2.489755705">
        <ele>448.59</ele>
        <time>2013-12-22T10:53:24Z</time>
      </trkpt>
      <trkpt lat="41.626898714" lon="2.489809517">
        <ele>449.07</ele>
        <time>2013-12-22T10:53:28Z</time>
      </trkpt>
      <trkpt lat="41.626854877" lon="2.490049491">
        <ele>449.55</ele>
        <time>2013-12-22T10:53:34Z</time>
      </trkpt>
      <trkpt lat="41.626823193" lon="2.490439165">
        <ele>447.15</ele>
        <time>2013-12-22T10:53:39Z</time>
      </trkpt>
      <trkpt lat="41.626794862" lon="2.490614012">
        <ele>447.15</ele>
        <time>2013-12-22T10:53:42Z</time>
      </trkpt>
      <trkpt lat="41.626707607" lon="2.490631865">
        <ele>448.11</ele>
        <time>2013-12-22T10:53:46Z</time>
      </trkpt>
      <trkpt lat="41.626514739" lon="2.490632620">
        <ele>450.03</ele>
        <time>2013-12-22T10:53:53Z</time>
      </trkpt>
      <trkpt lat="41.626339725" lon="2.490695652">
        <ele>451.48</ele>
        <time>2013-12-22T10:54:00Z</time>
      </trkpt>
      <trkpt lat="41.626224725" lon="2.490825236">
        <ele>452.44</ele>
        <time>2013-12-22T10:54:06Z</time>
      </trkpt>
      <trkpt lat="41.626285578" lon="2.490974518">
        <ele>452.92</ele>
        <time>2013-12-22T10:54:11Z</time>
      </trkpt>
      <trkpt lat="41.626398314" lon="2.491042495">
        <ele>451.48</ele>
        <time>2013-12-22T10:54:14Z</time>
      </trkpt>
      <trkpt lat="41.626529240" lon="2.491230920">
        <ele>448.59</ele>
        <time>2013-12-22T10:54:18Z</time>
      </trkpt>
      <trkpt lat="41.626615322" lon="2.491416244">
        <ele>446.67</ele>
        <time>2013-12-22T10:54:21Z</time>
      </trkpt>
      <trkpt lat="41.626553631" lon="2.491650602">
        <ele>444.75</ele>
        <time>2013-12-22T10:54:25Z</time>
      </trkpt>
      <trkpt lat="41.626336121" lon="2.491799800">
        <ele>443.79</ele>
        <time>2013-12-22T10:54:30Z</time>
      </trkpt>
      <trkpt lat="41.626303850" lon="2.491851851">
        <ele>443.79</ele>
        <time>2013-12-22T10:54:31Z</time>
      </trkpt>
      <trkpt lat="41.626188432" lon="2.492249154">
        <ele>441.86</ele>
        <time>2013-12-22T10:54:37Z</time>
      </trkpt>
      <trkpt lat="41.626015680" lon="2.492440177">
        <ele>441.38</ele>
        <time>2013-12-22T10:54:41Z</time>
      </trkpt>
      <trkpt lat="41.625906045" lon="2.492482422">
        <ele>440.42</ele>
        <time>2013-12-22T10:54:43Z</time>
      </trkpt>
      <trkpt lat="41.625804457" lon="2.492633045">
        <ele>439.94</ele>
        <time>2013-12-22T10:54:46Z</time>
      </trkpt>
      <trkpt lat="41.625832536" lon="2.492831864">
        <ele>439.94</ele>
        <time>2013-12-22T10:54:50Z</time>
      </trkpt>
      <trkpt lat="41.625804708" lon="2.492995478">
        <ele>439.94</ele>
        <time>2013-12-22T10:54:54Z</time>
      </trkpt>
      <trkpt lat="41.625770426" lon="2.493057253">
        <ele>441.38</ele>
        <time>2013-12-22T10:54:56Z</time>
      </trkpt>
      <trkpt lat="41.625754417" lon="2.493103689">
        <ele>441.38</ele>
        <time>2013-12-22T10:54:57Z</time>
      </trkpt>
      <trkpt lat="41.625799008" lon="2.493296221">
        <ele>439.94</ele>
        <time>2013-12-22T10:55:01Z</time>
      </trkpt>
      <trkpt lat="41.625903447" lon="2.493355062">
        <ele>439.46</ele>
        <time>2013-12-22T10:55:04Z</time>
      </trkpt>
      <trkpt lat="41.625994390" lon="2.493400324">
        <ele>438.98</ele>
        <time>2013-12-22T10:55:06Z</time>
      </trkpt>
      <trkpt lat="41.626199160" lon="2.493407030">
        <ele>437.54</ele>
        <time>2013-12-22T10:55:10Z</time>
      </trkpt>
      <trkpt lat="41.626441565" lon="2.493288007">
        <ele>436.58</ele>
        <time>2013-12-22T10:55:14Z</time>
      </trkpt>
      <trkpt lat="41.626705763" lon="2.493211061">
        <ele>434.65</ele>
        <time>2013-12-22T10:55:18Z</time>
      </trkpt>
      <trkpt lat="41.626972978" lon="2.493350368">
        <ele>433.21</ele>
        <time>2013-12-22T10:55:23Z</time>
      </trkpt>
      <trkpt lat="41.627011367" lon="2.493641555">
        <ele>433.21</ele>
        <time>2013-12-22T10:55:27Z</time>
      </trkpt>
      <trkpt lat="41.626895361" lon="2.493985381">
        <ele>431.29</ele>
        <time>2013-12-22T10:55:32Z</time>
      </trkpt>
      <trkpt lat="41.626850183" lon="2.494035505">
        <ele>431.77</ele>
        <time>2013-12-22T10:55:33Z</time>
      </trkpt>
      <trkpt lat="41.626727136" lon="2.494324094">
        <ele>429.37</ele>
        <time>2013-12-22T10:55:38Z</time>
      </trkpt>
      <trkpt lat="41.626701991" lon="2.494697340">
        <ele>429.37</ele>
        <time>2013-12-22T10:55:44Z</time>
      </trkpt>
      <trkpt lat="41.626514990" lon="2.495032784">
        <ele>429.37</ele>
        <time>2013-12-22T10:55:53Z</time>
      </trkpt>
      <trkpt lat="41.626345173" lon="2.495319948">
        <ele>429.37</ele>
        <time>2013-12-22T10:56:01Z</time>
      </trkpt>
      <trkpt lat="41.626214751" lon="2.495665617">
        <ele>428.89</ele>
        <time>2013-12-22T10:56:09Z</time>
      </trkpt>
      <trkpt lat="41.626216846" lon="2.495784054">
        <ele>427.92</ele>
        <time>2013-12-22T10:56:13Z</time>
      </trkpt>
      <trkpt lat="41.626331511" lon="2.495824538">
        <ele>427.92</ele>
        <time>2013-12-22T10:56:19Z</time>
      </trkpt>
      <trkpt lat="41.626353639" lon="2.495822359">
        <ele>427.92</ele>
        <time>2013-12-22T10:56:20Z</time>
      </trkpt>
      <trkpt lat="41.626581627" lon="2.495880278">
        <ele>428.89</ele>
        <time>2013-12-22T10:56:28Z</time>
      </trkpt>
      <trkpt lat="41.626716240" lon="2.495999469">
        <ele>428.89</ele>
        <time>2013-12-22T10:56:32Z</time>
      </trkpt>
      <trkpt lat="41.626759658" lon="2.496280262">
        <ele>428.89</ele>
        <time>2013-12-22T10:56:37Z</time>
      </trkpt>
      <trkpt lat="41.626730573" lon="2.496391742">
        <ele>428.89</ele>
        <time>2013-12-22T10:56:39Z</time>
      </trkpt>
      <trkpt lat="41.626551871" lon="2.496819554">
        <ele>427.92</ele>
        <time>2013-12-22T10:56:49Z</time>
      </trkpt>
      <trkpt lat="41.626519936" lon="2.496894237">
        <ele>427.44</ele>
        <time>2013-12-22T10:56:51Z</time>
      </trkpt>
      <trkpt lat="41.626598474" lon="2.497257173">
        <ele>425.04</ele>
        <time>2013-12-22T10:56:57Z</time>
      </trkpt>
      <trkpt lat="41.626573831" lon="2.497409891">
        <ele>425.04</ele>
        <time>2013-12-22T10:57:00Z</time>
      </trkpt>
      <trkpt lat="41.626564528" lon="2.497618098">
        <ele>424.08</ele>
        <time>2013-12-22T10:57:04Z</time>
      </trkpt>
      <trkpt lat="41.626655136" lon="2.497757405">
        <ele>424.08</ele>
        <time>2013-12-22T10:57:09Z</time>
      </trkpt>
      <trkpt lat="41.626832413" lon="2.498018585">
        <ele>424.08</ele>
        <time>2013-12-22T10:57:17Z</time>
      </trkpt>
      <trkpt lat="41.627012540" lon="2.498124952">
        <ele>424.08</ele>
        <time>2013-12-22T10:57:23Z</time>
      </trkpt>
      <trkpt lat="41.627226446" lon="2.498228887">
        <ele>424.08</ele>
        <time>2013-12-22T10:57:30Z</time>
      </trkpt>
      <trkpt lat="41.627248072" lon="2.498260571">
        <ele>424.08</ele>
        <time>2013-12-22T10:57:31Z</time>
      </trkpt>
      <trkpt lat="41.627203145" lon="2.498401890">
        <ele>426.00</ele>
        <time>2013-12-22T10:57:36Z</time>
      </trkpt>
      <trkpt lat="41.627143130" lon="2.498402225">
        <ele>426.00</ele>
        <time>2013-12-22T10:57:38Z</time>
      </trkpt>
      <trkpt lat="41.626960908" lon="2.498358052">
        <ele>426.00</ele>
        <time>2013-12-22T10:57:44Z</time>
      </trkpt>
      <trkpt lat="41.626808441" lon="2.498407506">
        <ele>426.00</ele>
        <time>2013-12-22T10:57:48Z</time>
      </trkpt>
      <trkpt lat="41.626681623" lon="2.498563912">
        <ele>424.56</ele>
        <time>2013-12-22T10:57:52Z</time>
      </trkpt>
      <trkpt lat="41.626589170" lon="2.498804053">
        <ele>423.60</ele>
        <time>2013-12-22T10:57:57Z</time>
      </trkpt>
      <trkpt lat="41.626611215" lon="2.498840515">
        <ele>423.60</ele>
        <time>2013-12-22T10:57:58Z</time>
      </trkpt>
      <trkpt lat="41.626736021" lon="2.499081662">
        <ele>425.04</ele>
        <time>2013-12-22T10:58:05Z</time>
      </trkpt>
      <trkpt lat="41.626738452" lon="2.499332197">
        <ele>426.00</ele>
        <time>2013-12-22T10:58:11Z</time>
      </trkpt>
      <trkpt lat="41.626707523" lon="2.499651631">
        <ele>426.00</ele>
        <time>2013-12-22T10:58:18Z</time>
      </trkpt>
      <trkpt lat="41.626709367" lon="2.499847014">
        <ele>426.96</ele>
        <time>2013-12-22T10:58:23Z</time>
      </trkpt>
      <trkpt lat="41.626872311" lon="2.499944830">
        <ele>426.96</ele>
        <time>2013-12-22T10:58:29Z</time>
      </trkpt>
      <trkpt lat="41.627133156" lon="2.499978693">
        <ele>426.96</ele>
        <time>2013-12-22T10:58:37Z</time>
      </trkpt>
      <trkpt lat="41.627336417" lon="2.500130238">
        <ele>426.96</ele>
        <time>2013-12-22T10:58:44Z</time>
      </trkpt>
      <trkpt lat="41.627399114" lon="2.500276838">
        <ele>427.92</ele>
        <time>2013-12-22T10:58:48Z</time>
      </trkpt>
      <trkpt lat="41.627393414" lon="2.500423605">
        <ele>428.89</ele>
        <time>2013-12-22T10:58:52Z</time>
      </trkpt>
      <trkpt lat="41.627371537" lon="2.500563499">
        <ele>429.37</ele>
        <time>2013-12-22T10:58:56Z</time>
      </trkpt>
      <trkpt lat="41.627402131" lon="2.500741446">
        <ele>430.81</ele>
        <time>2013-12-22T10:59:01Z</time>
      </trkpt>
      <trkpt lat="41.627546048" lon="2.500945211">
        <ele>431.29</ele>
        <time>2013-12-22T10:59:08Z</time>
      </trkpt>
      <trkpt lat="41.627727852" lon="2.501034478">
        <ele>431.77</ele>
        <time>2013-12-22T10:59:15Z</time>
      </trkpt>
      <trkpt lat="41.627786106" lon="2.501199685">
        <ele>433.21</ele>
        <time>2013-12-22T10:59:20Z</time>
      </trkpt>
      <trkpt lat="41.627736150" lon="2.501461368">
        <ele>434.65</ele>
        <time>2013-12-22T10:59:28Z</time>
      </trkpt>
      <trkpt lat="41.627720643" lon="2.501631772">
        <ele>434.65</ele>
        <time>2013-12-22T10:59:33Z</time>
      </trkpt>
      <trkpt lat="41.627716452" lon="2.501779964">
        <ele>435.13</ele>
        <time>2013-12-22T10:59:39Z</time>
      </trkpt>
      <trkpt lat="41.627715698" lon="2.501800919">
        <ele>435.13</ele>
        <time>2013-12-22T10:59:53Z</time>
      </trkpt>
      <trkpt lat="41.627710334" lon="2.501844421">
        <ele>435.61</ele>
        <time>2013-12-22T11:00:06Z</time>
      </trkpt>
      <trkpt lat="41.627675465" lon="2.502042150">
        <ele>435.61</ele>
        <time>2013-12-22T11:00:14Z</time>
      </trkpt>
      <trkpt lat="41.627625174" lon="2.502262008">
        <ele>435.61</ele>
        <time>2013-12-22T11:00:21Z</time>
      </trkpt>
      <trkpt lat="41.627578235" lon="2.502457557">
        <ele>435.61</ele>
        <time>2013-12-22T11:00:28Z</time>
      </trkpt>
      <trkpt lat="41.627553005" lon="2.502569707">
        <ele>435.61</ele>
        <time>2013-12-22T11:00:34Z</time>
      </trkpt>
      <trkpt lat="41.627453847" lon="2.502667189">
        <ele>433.21</ele>
        <time>2013-12-22T11:00:40Z</time>
      </trkpt>
      <trkpt lat="41.627484693" lon="2.502826110">
        <ele>431.29</ele>
        <time>2013-12-22T11:00:45Z</time>
      </trkpt>
      <trkpt lat="41.627568344" lon="2.503135067">
        <ele>428.40</ele>
        <time>2013-12-22T11:00:52Z</time>
      </trkpt>
      <trkpt lat="41.627631209" lon="2.503500350">
        <ele>426.00</ele>
        <time>2013-12-22T11:00:59Z</time>
      </trkpt>
      <trkpt lat="41.627633304" lon="2.503577883">
        <ele>425.04</ele>
        <time>2013-12-22T11:01:01Z</time>
      </trkpt>
      <trkpt lat="41.627704299" lon="2.503621552">
        <ele>423.60</ele>
        <time>2013-12-22T11:01:06Z</time>
      </trkpt>
      <trkpt lat="41.627746460" lon="2.503568579">
        <ele>423.12</ele>
        <time>2013-12-22T11:01:08Z</time>
      </trkpt>
      <trkpt lat="41.627859448" lon="2.503177395">
        <ele>419.75</ele>
        <time>2013-12-22T11:01:15Z</time>
      </trkpt>
      <trkpt lat="41.627908649" lon="2.502942450">
        <ele>416.39</ele>
        <time>2013-12-22T11:01:19Z</time>
      </trkpt>
      <trkpt lat="41.627984590" lon="2.502684120">
        <ele>414.95</ele>
        <time>2013-12-22T11:01:23Z</time>
      </trkpt>
      <trkpt lat="41.628149294" lon="2.502499886">
        <ele>413.02</ele>
        <time>2013-12-22T11:01:27Z</time>
      </trkpt>
      <trkpt lat="41.628257337" lon="2.502448337">
        <ele>411.58</ele>
        <time>2013-12-22T11:01:30Z</time>
      </trkpt>
      <trkpt lat="41.628307125" lon="2.502434591">
        <ele>410.14</ele>
        <time>2013-12-22T11:01:32Z</time>
      </trkpt>
      <trkpt lat="41.628405780" lon="2.502490247">
        <ele>409.18</ele>
        <time>2013-12-22T11:01:38Z</time>
      </trkpt>
      <trkpt lat="41.628377785" lon="2.502528887">
        <ele>408.70</ele>
        <time>2013-12-22T11:01:40Z</time>
      </trkpt>
      <trkpt lat="41.628265048" lon="2.502663920">
        <ele>406.77</ele>
        <time>2013-12-22T11:01:45Z</time>
      </trkpt>
      <trkpt lat="41.628223306" lon="2.502863074">
        <ele>404.37</ele>
        <time>2013-12-22T11:01:51Z</time>
      </trkpt>
      <trkpt lat="41.628224899" lon="2.503047392">
        <ele>402.45</ele>
        <time>2013-12-22T11:01:55Z</time>
      </trkpt>
      <trkpt lat="41.628219115" lon="2.503376549">
        <ele>399.08</ele>
        <time>2013-12-22T11:02:01Z</time>
      </trkpt>
      <trkpt lat="41.628204363" lon="2.503679387">
        <ele>395.72</ele>
        <time>2013-12-22T11:02:07Z</time>
      </trkpt>
      <trkpt lat="41.628200507" lon="2.503697408">
        <ele>395.24</ele>
        <time>2013-12-22T11:02:08Z</time>
      </trkpt>
      <trkpt lat="41.628182905" lon="2.503843924">
        <ele>393.80</ele>
        <time>2013-12-22T11:02:14Z</time>
      </trkpt>
      <trkpt lat="41.628153820" lon="2.504131340">
        <ele>392.84</ele>
        <time>2013-12-22T11:02:21Z</time>
      </trkpt>
      <trkpt lat="41.628128926" lon="2.504249357">
        <ele>391.39</ele>
        <time>2013-12-22T11:02:23Z</time>
      </trkpt>
      <trkpt lat="41.628116269" lon="2.504492683">
        <ele>389.47</ele>
        <time>2013-12-22T11:02:27Z</time>
      </trkpt>
      <trkpt lat="41.628126663" lon="2.504616316">
        <ele>388.99</ele>
        <time>2013-12-22T11:02:29Z</time>
      </trkpt>
      <trkpt lat="41.628090621" lon="2.504830893">
        <ele>387.07</ele>
        <time>2013-12-22T11:02:33Z</time>
      </trkpt>
      <trkpt lat="41.628029097" lon="2.504943127">
        <ele>385.63</ele>
        <time>2013-12-22T11:02:36Z</time>
      </trkpt>
      <trkpt lat="41.627878978" lon="2.504982354">
        <ele>383.70</ele>
        <time>2013-12-22T11:02:41Z</time>
      </trkpt>
      <trkpt lat="41.627851150" lon="2.504971458">
        <ele>383.70</ele>
        <time>2013-12-22T11:02:42Z</time>
      </trkpt>
      <trkpt lat="41.627636908" lon="2.505088721">
        <ele>383.22</ele>
        <time>2013-12-22T11:02:50Z</time>
      </trkpt>
      <trkpt lat="41.627467929" lon="2.505196512">
        <ele>384.66</ele>
        <time>2013-12-22T11:02:58Z</time>
      </trkpt>
      <trkpt lat="41.627375141" lon="2.505216293">
        <ele>384.66</ele>
        <time>2013-12-22T11:03:02Z</time>
      </trkpt>
      <trkpt lat="41.627315211" lon="2.505186370">
        <ele>383.22</ele>
        <time>2013-12-22T11:03:04Z</time>
      </trkpt>
      <trkpt lat="41.627097533" lon="2.505011523">
        <ele>379.86</ele>
        <time>2013-12-22T11:03:10Z</time>
      </trkpt>
      <trkpt lat="41.626900474" lon="2.504766101">
        <ele>376.97</ele>
        <time>2013-12-22T11:03:16Z</time>
      </trkpt>
      <trkpt lat="41.626763262" lon="2.504701644">
        <ele>376.49</ele>
        <time>2013-12-22T11:03:20Z</time>
      </trkpt>
      <trkpt lat="41.626600234" lon="2.504758390">
        <ele>376.49</ele>
        <time>2013-12-22T11:03:27Z</time>
      </trkpt>
      <trkpt lat="41.626534101" lon="2.504819326">
        <ele>376.49</ele>
        <time>2013-12-22T11:03:31Z</time>
      </trkpt>
      <trkpt lat="41.626487582" lon="2.504947653">
        <ele>377.94</ele>
        <time>2013-12-22T11:03:36Z</time>
      </trkpt>
      <trkpt lat="41.626386747" lon="2.505148484">
        <ele>379.86</ele>
        <time>2013-12-22T11:03:44Z</time>
      </trkpt>
      <trkpt lat="41.626341150" lon="2.505249402">
        <ele>381.30</ele>
        <time>2013-12-22T11:03:48Z</time>
      </trkpt>
      <trkpt lat="41.626196981" lon="2.505323917">
        <ele>383.22</ele>
        <time>2013-12-22T11:03:57Z</time>
      </trkpt>
      <trkpt lat="41.626076198" lon="2.505365994">
        <ele>383.70</ele>
        <time>2013-12-22T11:04:04Z</time>
      </trkpt>
      <trkpt lat="41.626013669" lon="2.505425338">
        <ele>384.18</ele>
        <time>2013-12-22T11:04:08Z</time>
      </trkpt>
      <trkpt lat="41.625990451" lon="2.505493650">
        <ele>384.66</ele>
        <time>2013-12-22T11:04:11Z</time>
      </trkpt>
      <trkpt lat="41.626001850" lon="2.505583504">
        <ele>385.15</ele>
        <time>2013-12-22T11:04:15Z</time>
      </trkpt>
      <trkpt lat="41.626082065" lon="2.505730523">
        <ele>387.55</ele>
        <time>2013-12-22T11:04:23Z</time>
      </trkpt>
      <trkpt lat="41.626115257" lon="2.505890114">
        <ele>388.99</ele>
        <time>2013-12-22T11:04:31Z</time>
      </trkpt>
      <trkpt lat="41.626104026" lon="2.506084155">
        <ele>390.43</ele>
        <time>2013-12-22T11:04:39Z</time>
      </trkpt>
      <trkpt lat="41.626007131" lon="2.506257745">
        <ele>392.36</ele>
        <time>2013-12-22T11:04:48Z</time>
      </trkpt>
      <trkpt lat="41.625929850" lon="2.506449774">
        <ele>392.84</ele>
        <time>2013-12-22T11:04:56Z</time>
      </trkpt>
      <trkpt lat="41.625933957" lon="2.506619005">
        <ele>393.32</ele>
        <time>2013-12-22T11:05:03Z</time>
      </trkpt>
      <trkpt lat="41.625932700" lon="2.506794438">
        <ele>394.76</ele>
        <time>2013-12-22T11:05:11Z</time>
      </trkpt>
      <trkpt lat="41.625876289" lon="2.506924525">
        <ele>396.20</ele>
        <time>2013-12-22T11:05:17Z</time>
      </trkpt>
      <trkpt lat="41.625784089" lon="2.507086463">
        <ele>398.12</ele>
        <time>2013-12-22T11:05:25Z</time>
      </trkpt>
      <trkpt lat="41.625767073" lon="2.507125020">
        <ele>398.12</ele>
        <time>2013-12-22T11:05:27Z</time>
      </trkpt>
      <trkpt lat="41.625714770" lon="2.507309841">
        <ele>399.57</ele>
        <time>2013-12-22T11:05:36Z</time>
      </trkpt>
      <trkpt lat="41.625646625" lon="2.507532967">
        <ele>400.53</ele>
        <time>2013-12-22T11:05:44Z</time>
      </trkpt>
      <trkpt lat="41.625546462" lon="2.507724075">
        <ele>402.45</ele>
        <time>2013-12-22T11:05:52Z</time>
      </trkpt>
      <trkpt lat="41.625475467" lon="2.507823233">
        <ele>403.89</ele>
        <time>2013-12-22T11:05:58Z</time>
      </trkpt>
      <trkpt lat="41.625484100" lon="2.507891042">
        <ele>404.85</ele>
        <time>2013-12-22T11:06:02Z</time>
      </trkpt>
      <trkpt lat="41.625568506" lon="2.507932952">
        <ele>404.85</ele>
        <time>2013-12-22T11:06:08Z</time>
      </trkpt>
      <trkpt lat="41.625726002" lon="2.507953739">
        <ele>406.29</ele>
        <time>2013-12-22T11:06:16Z</time>
      </trkpt>
      <trkpt lat="41.625845695" lon="2.507968910">
        <ele>406.77</ele>
        <time>2013-12-22T11:06:22Z</time>
      </trkpt>
      <trkpt lat="41.625955079" lon="2.507951895">
        <ele>407.26</ele>
        <time>2013-12-22T11:06:28Z</time>
      </trkpt>
      <trkpt lat="41.626145600" lon="2.507931862">
        <ele>408.22</ele>
        <time>2013-12-22T11:06:37Z</time>
      </trkpt>
      <trkpt lat="41.626279124" lon="2.507871680">
        <ele>408.70</ele>
        <time>2013-12-22T11:06:43Z</time>
      </trkpt>
      <trkpt lat="41.626407032" lon="2.507854246">
        <ele>410.62</ele>
        <time>2013-12-22T11:06:50Z</time>
      </trkpt>
      <trkpt lat="41.626598474" lon="2.507830860">
        <ele>411.10</ele>
        <time>2013-12-22T11:06:59Z</time>
      </trkpt>
      <trkpt lat="41.626749768" lon="2.507872518">
        <ele>413.02</ele>
        <time>2013-12-22T11:07:07Z</time>
      </trkpt>
      <trkpt lat="41.626783882" lon="2.507878218">
        <ele>413.98</ele>
        <time>2013-12-22T11:07:09Z</time>
      </trkpt>
      <trkpt lat="41.626819756" lon="2.507989278">
        <ele>414.47</ele>
        <time>2013-12-22T11:07:15Z</time>
      </trkpt>
      <trkpt lat="41.626769968" lon="2.508082820">
        <ele>414.95</ele>
        <time>2013-12-22T11:07:19Z</time>
      </trkpt>
      <trkpt lat="41.626719844" lon="2.508264959">
        <ele>416.39</ele>
        <time>2013-12-22T11:07:26Z</time>
      </trkpt>
      <trkpt lat="41.626669972" lon="2.508465873">
        <ele>417.35</ele>
        <time>2013-12-22T11:07:34Z</time>
      </trkpt>
      <trkpt lat="41.626571736" lon="2.508667626">
        <ele>418.79</ele>
        <time>2013-12-22T11:07:42Z</time>
      </trkpt>
      <trkpt lat="41.626444750" lon="2.508915311">
        <ele>420.23</ele>
        <time>2013-12-22T11:07:52Z</time>
      </trkpt>
      <trkpt lat="41.626437709" lon="2.509140952">
        <ele>420.71</ele>
        <time>2013-12-22T11:07:59Z</time>
      </trkpt>
      <trkpt lat="41.626479367" lon="2.509370616">
        <ele>421.19</ele>
        <time>2013-12-22T11:08:06Z</time>
      </trkpt>
      <trkpt lat="41.626457910" lon="2.509597682">
        <ele>421.19</ele>
        <time>2013-12-22T11:08:13Z</time>
      </trkpt>
      <trkpt lat="41.626359003" lon="2.509825250">
        <ele>422.16</ele>
        <time>2013-12-22T11:08:21Z</time>
      </trkpt>
      <trkpt lat="41.626282225" lon="2.510020465">
        <ele>423.12</ele>
        <time>2013-12-22T11:08:28Z</time>
      </trkpt>
      <trkpt lat="41.626187845" lon="2.510269826">
        <ele>424.08</ele>
        <time>2013-12-22T11:08:37Z</time>
      </trkpt>
      <trkpt lat="41.626124981" lon="2.510488091">
        <ele>425.52</ele>
        <time>2013-12-22T11:08:45Z</time>
      </trkpt>
      <trkpt lat="41.626057674" lon="2.510700908">
        <ele>426.96</ele>
        <time>2013-12-22T11:08:53Z</time>
      </trkpt>
      <trkpt lat="41.626009059" lon="2.510868294">
        <ele>428.40</ele>
        <time>2013-12-22T11:09:00Z</time>
      </trkpt>
      <trkpt lat="41.625922977" lon="2.511102904">
        <ele>429.85</ele>
        <time>2013-12-22T11:09:09Z</time>
      </trkpt>
      <trkpt lat="41.625853910" lon="2.511300968">
        <ele>431.77</ele>
        <time>2013-12-22T11:09:17Z</time>
      </trkpt>
      <trkpt lat="41.625823232" lon="2.511469528">
        <ele>433.21</ele>
        <time>2013-12-22T11:09:24Z</time>
      </trkpt>
      <trkpt lat="41.625845025" lon="2.511631802">
        <ele>434.65</ele>
        <time>2013-12-22T11:09:30Z</time>
      </trkpt>
      <trkpt lat="41.625892215" lon="2.511690140">
        <ele>435.13</ele>
        <time>2013-12-22T11:09:33Z</time>
      </trkpt>
      <trkpt lat="41.626036635" lon="2.511722997">
        <ele>437.06</ele>
        <time>2013-12-22T11:09:41Z</time>
      </trkpt>
      <trkpt lat="41.626159011" lon="2.511805894">
        <ele>438.98</ele>
        <time>2013-12-22T11:09:48Z</time>
      </trkpt>
      <trkpt lat="41.626247356" lon="2.511967246">
        <ele>440.42</ele>
        <time>2013-12-22T11:09:55Z</time>
      </trkpt>
      <trkpt lat="41.626296307" lon="2.512132118">
        <ele>442.82</ele>
        <time>2013-12-22T11:10:02Z</time>
      </trkpt>
      <trkpt lat="41.626331762" lon="2.512312915">
        <ele>443.79</ele>
        <time>2013-12-22T11:10:09Z</time>
      </trkpt>
      <trkpt lat="41.626363781" lon="2.512548531">
        <ele>445.23</ele>
        <time>2013-12-22T11:10:18Z</time>
      </trkpt>
      <trkpt lat="41.626376605" lon="2.512776686">
        <ele>446.19</ele>
        <time>2013-12-22T11:10:26Z</time>
      </trkpt>
      <trkpt lat="41.626405439" lon="2.512880202">
        <ele>447.15</ele>
        <time>2013-12-22T11:10:30Z</time>
      </trkpt>
      <trkpt lat="41.626526474" lon="2.512955388">
        <ele>447.63</ele>
        <time>2013-12-22T11:10:37Z</time>
      </trkpt>
      <trkpt lat="41.626589003" lon="2.512946336">
        <ele>448.11</ele>
        <time>2013-12-22T11:10:41Z</time>
      </trkpt>
      <trkpt lat="41.626764101" lon="2.512962597">
        <ele>448.59</ele>
        <time>2013-12-22T11:10:49Z</time>
      </trkpt>
      <trkpt lat="41.626958728" lon="2.513033424">
        <ele>449.07</ele>
        <time>2013-12-22T11:10:58Z</time>
      </trkpt>
      <trkpt lat="41.627079093" lon="2.513162505">
        <ele>450.03</ele>
        <time>2013-12-22T11:11:05Z</time>
      </trkpt>
      <trkpt lat="41.627213538" lon="2.513419913">
        <ele>451.48</ele>
        <time>2013-12-22T11:11:15Z</time>
      </trkpt>
      <trkpt lat="41.627318647" lon="2.513649326">
        <ele>451.96</ele>
        <time>2013-12-22T11:11:22Z</time>
      </trkpt>
      <trkpt lat="41.627433647" lon="2.513901370">
        <ele>450.03</ele>
        <time>2013-12-22T11:11:28Z</time>
      </trkpt>
      <trkpt lat="41.627451081" lon="2.514069343">
        <ele>449.07</ele>
        <time>2013-12-22T11:11:31Z</time>
      </trkpt>
      <trkpt lat="41.627491482" lon="2.514291380">
        <ele>448.11</ele>
        <time>2013-12-22T11:11:34Z</time>
      </trkpt>
      <trkpt lat="41.627467761" lon="2.514746433">
        <ele>446.19</ele>
        <time>2013-12-22T11:11:39Z</time>
      </trkpt>
      <trkpt lat="41.627419146" lon="2.514936451">
        <ele>445.23</ele>
        <time>2013-12-22T11:11:41Z</time>
      </trkpt>
      <trkpt lat="41.627244719" lon="2.515279774">
        <ele>442.34</ele>
        <time>2013-12-22T11:11:45Z</time>
      </trkpt>
      <trkpt lat="41.627136592" lon="2.515424026">
        <ele>439.94</ele>
        <time>2013-12-22T11:11:47Z</time>
      </trkpt>
      <trkpt lat="41.626800981" lon="2.515869860">
        <ele>436.58</ele>
        <time>2013-12-22T11:11:53Z</time>
      </trkpt>
      <trkpt lat="41.626778434" lon="2.515968850">
        <ele>436.10</ele>
        <time>2013-12-22T11:11:54Z</time>
      </trkpt>
      <trkpt lat="41.626654717" lon="2.516728837">
        <ele>432.25</ele>
        <time>2013-12-22T11:12:01Z</time>
      </trkpt>
      <trkpt lat="41.626614903" lon="2.517078027">
        <ele>430.81</ele>
        <time>2013-12-22T11:12:04Z</time>
      </trkpt>
      <trkpt lat="41.626563857" lon="2.517377094">
        <ele>428.89</ele>
        <time>2013-12-22T11:12:07Z</time>
      </trkpt>
      <trkpt lat="41.626554385" lon="2.518073713">
        <ele>425.52</ele>
        <time>2013-12-22T11:12:14Z</time>
      </trkpt>
      <trkpt lat="41.626549692" lon="2.518523822">
        <ele>424.08</ele>
        <time>2013-12-22T11:12:19Z</time>
      </trkpt>
      <trkpt lat="41.626595373" lon="2.518746613">
        <ele>424.08</ele>
        <time>2013-12-22T11:12:24Z</time>
      </trkpt>
      <trkpt lat="41.626633343" lon="2.518841161">
        <ele>424.56</ele>
        <time>2013-12-22T11:12:27Z</time>
      </trkpt>
      <trkpt lat="41.626703835" lon="2.519157913">
        <ele>424.56</ele>
        <time>2013-12-22T11:12:34Z</time>
      </trkpt>
      <trkpt lat="41.626708612" lon="2.519223878">
        <ele>424.56</ele>
        <time>2013-12-22T11:12:35Z</time>
      </trkpt>
      <trkpt lat="41.626734848" lon="2.519432420">
        <ele>423.60</ele>
        <time>2013-12-22T11:12:38Z</time>
      </trkpt>
      <trkpt lat="41.626757227" lon="2.519632328">
        <ele>422.16</ele>
        <time>2013-12-22T11:12:41Z</time>
      </trkpt>
      <trkpt lat="41.626725292" lon="2.519887474">
        <ele>421.68</ele>
        <time>2013-12-22T11:12:45Z</time>
      </trkpt>
      <trkpt lat="41.626638037" lon="2.520130800">
        <ele>421.19</ele>
        <time>2013-12-22T11:12:50Z</time>
      </trkpt>
      <trkpt lat="41.626591853" lon="2.520110181">
        <ele>421.19</ele>
        <time>2013-12-22T11:12:55Z</time>
      </trkpt>
      <trkpt lat="41.626646503" lon="2.519894850">
        <ele>417.83</ele>
        <time>2013-12-22T11:13:01Z</time>
      </trkpt>
      <trkpt lat="41.626628398" lon="2.519765182">
        <ele>416.39</ele>
        <time>2013-12-22T11:13:04Z</time>
      </trkpt>
      <trkpt lat="41.626597720" lon="2.519641632">
        <ele>414.47</ele>
        <time>2013-12-22T11:13:07Z</time>
      </trkpt>
      <trkpt lat="41.626531503" lon="2.519447172">
        <ele>412.06</ele>
        <time>2013-12-22T11:13:12Z</time>
      </trkpt>
      <trkpt lat="41.626474506" lon="2.519329825">
        <ele>408.70</ele>
        <time>2013-12-22T11:13:16Z</time>
      </trkpt>
      <trkpt lat="41.626348693" lon="2.519087756">
        <ele>405.81</ele>
        <time>2013-12-22T11:13:22Z</time>
      </trkpt>
      <trkpt lat="41.626221372" lon="2.518873515">
        <ele>402.45</ele>
        <time>2013-12-22T11:13:28Z</time>
      </trkpt>
      <trkpt lat="41.626207291" lon="2.518844010">
        <ele>401.97</ele>
        <time>2013-12-22T11:13:29Z</time>
      </trkpt>
      <trkpt lat="41.626161526" lon="2.518730352">
        <ele>400.53</ele>
        <time>2013-12-22T11:13:34Z</time>
      </trkpt>
      <trkpt lat="41.626101008" lon="2.518611748">
        <ele>398.12</ele>
        <time>2013-12-22T11:13:40Z</time>
      </trkpt>
      <trkpt lat="41.626077036" lon="2.518562127">
        <ele>397.16</ele>
        <time>2013-12-22T11:13:42Z</time>
      </trkpt>
      <trkpt lat="41.625995899" lon="2.518361800">
        <ele>394.76</ele>
        <time>2013-12-22T11:13:48Z</time>
      </trkpt>
      <trkpt lat="41.625923982" lon="2.518137919">
        <ele>391.87</ele>
        <time>2013-12-22T11:13:53Z</time>
      </trkpt>
      <trkpt lat="41.625883666" lon="2.517901465">
        <ele>388.99</ele>
        <time>2013-12-22T11:13:59Z</time>
      </trkpt>
      <trkpt lat="41.625804205" lon="2.517718656">
        <ele>387.07</ele>
        <time>2013-12-22T11:14:05Z</time>
      </trkpt>
      <trkpt lat="41.625719967" lon="2.517541295">
        <ele>384.66</ele>
        <time>2013-12-22T11:14:10Z</time>
      </trkpt>
      <trkpt lat="41.625596502" lon="2.517386062">
        <ele>382.26</ele>
        <time>2013-12-22T11:14:15Z</time>
      </trkpt>
      <trkpt lat="41.625501199" lon="2.517315151">
        <ele>379.86</ele>
        <time>2013-12-22T11:14:18Z</time>
      </trkpt>
      <trkpt lat="41.625369184" lon="2.517242313">
        <ele>377.94</ele>
        <time>2013-12-22T11:14:23Z</time>
      </trkpt>
      <trkpt lat="41.625235661" lon="2.517152878">
        <ele>376.97</ele>
        <time>2013-12-22T11:14:27Z</time>
      </trkpt>
      <trkpt lat="41.625030136" lon="2.517056653">
        <ele>373.61</ele>
        <time>2013-12-22T11:14:33Z</time>
      </trkpt>
      <trkpt lat="41.624826037" lon="2.517010134">
        <ele>372.17</ele>
        <time>2013-12-22T11:14:39Z</time>
      </trkpt>
      <trkpt lat="41.624626715" lon="2.517051037">
        <ele>370.24</ele>
        <time>2013-12-22T11:14:44Z</time>
      </trkpt>
      <trkpt lat="41.624600145" lon="2.517069226">
        <ele>369.76</ele>
        <time>2013-12-22T11:14:45Z</time>
      </trkpt>
      <trkpt lat="41.624418676" lon="2.517125553">
        <ele>367.36</ele>
        <time>2013-12-22T11:14:51Z</time>
      </trkpt>
      <trkpt lat="41.624259672" lon="2.517181125">
        <ele>364.48</ele>
        <time>2013-12-22T11:14:56Z</time>
      </trkpt>
      <trkpt lat="41.624138386" lon="2.517213479">
        <ele>362.07</ele>
        <time>2013-12-22T11:15:01Z</time>
      </trkpt>
      <trkpt lat="41.624169063" lon="2.517281959">
        <ele>361.59</ele>
        <time>2013-12-22T11:15:05Z</time>
      </trkpt>
      <trkpt lat="41.624295211" lon="2.517266117">
        <ele>360.63</ele>
        <time>2013-12-22T11:15:10Z</time>
      </trkpt>
      <trkpt lat="41.624517667" lon="2.517283719">
        <ele>359.67</ele>
        <time>2013-12-22T11:15:18Z</time>
      </trkpt>
      <trkpt lat="41.624724364" lon="2.517288162">
        <ele>358.71</ele>
        <time>2013-12-22T11:15:25Z</time>
      </trkpt>
      <trkpt lat="41.624940450" lon="2.517405927">
        <ele>358.23</ele>
        <time>2013-12-22T11:15:32Z</time>
      </trkpt>
      <trkpt lat="41.625172377" lon="2.517540708">
        <ele>358.23</ele>
        <time>2013-12-22T11:15:41Z</time>
      </trkpt>
      <trkpt lat="41.625257705" lon="2.517580774">
        <ele>359.67</ele>
        <time>2013-12-22T11:15:45Z</time>
      </trkpt>
      <trkpt lat="41.625363988" lon="2.517726200">
        <ele>362.07</ele>
        <time>2013-12-22T11:15:52Z</time>
      </trkpt>
      <trkpt lat="41.625431965" lon="2.517882438">
        <ele>363.52</ele>
        <time>2013-12-22T11:15:59Z</time>
      </trkpt>
      <trkpt lat="41.625441772" lon="2.517958379">
        <ele>364.00</ele>
        <time>2013-12-22T11:16:02Z</time>
      </trkpt>
      <trkpt lat="41.625455518" lon="2.518050328">
        <ele>364.96</ele>
        <time>2013-12-22T11:16:06Z</time>
      </trkpt>
      <trkpt lat="41.625551742" lon="2.518257780">
        <ele>366.88</ele>
        <time>2013-12-22T11:16:15Z</time>
      </trkpt>
      <trkpt lat="41.625595328" lon="2.518325087">
        <ele>367.36</ele>
        <time>2013-12-22T11:16:18Z</time>
      </trkpt>
      <trkpt lat="41.625621396" lon="2.518493563">
        <ele>368.80</ele>
        <time>2013-12-22T11:16:25Z</time>
      </trkpt>
      <trkpt lat="41.625638662" lon="2.518675199">
        <ele>370.24</ele>
        <time>2013-12-22T11:16:32Z</time>
      </trkpt>
      <trkpt lat="41.625694821" lon="2.518846274">
        <ele>371.21</ele>
        <time>2013-12-22T11:16:39Z</time>
      </trkpt>
      <trkpt lat="41.625789453" lon="2.519056240">
        <ele>372.65</ele>
        <time>2013-12-22T11:16:49Z</time>
      </trkpt>
      <trkpt lat="41.625852150" lon="2.519192111">
        <ele>373.13</ele>
        <time>2013-12-22T11:16:55Z</time>
      </trkpt>
      <trkpt lat="41.625877295" lon="2.519336280">
        <ele>374.09</ele>
        <time>2013-12-22T11:17:01Z</time>
      </trkpt>
      <trkpt lat="41.625822142" lon="2.519505678">
        <ele>374.57</ele>
        <time>2013-12-22T11:17:07Z</time>
      </trkpt>
      <trkpt lat="41.625657103" lon="2.519688236">
        <ele>375.05</ele>
        <time>2013-12-22T11:17:15Z</time>
      </trkpt>
      <trkpt lat="41.625491895" lon="2.519773312">
        <ele>375.05</ele>
        <time>2013-12-22T11:17:22Z</time>
      </trkpt>
      <trkpt lat="41.625358707" lon="2.519938519">
        <ele>375.05</ele>
        <time>2013-12-22T11:17:29Z</time>
      </trkpt>
      <trkpt lat="41.625383769" lon="2.520115713">
        <ele>374.09</ele>
        <time>2013-12-22T11:17:34Z</time>
      </trkpt>
      <trkpt lat="41.625432049" lon="2.520378150">
        <ele>372.65</ele>
        <time>2013-12-22T11:17:41Z</time>
      </trkpt>
      <trkpt lat="41.625486950" lon="2.520660034">
        <ele>371.21</ele>
        <time>2013-12-22T11:17:47Z</time>
      </trkpt>
      <trkpt lat="41.625556268" lon="2.521011319">
        <ele>368.80</ele>
        <time>2013-12-22T11:17:54Z</time>
      </trkpt>
      <trkpt lat="41.625412016" lon="2.521160266">
        <ele>367.36</ele>
        <time>2013-12-22T11:17:59Z</time>
      </trkpt>
      <trkpt lat="41.625356360" lon="2.521208545">
        <ele>366.40</ele>
        <time>2013-12-22T11:18:01Z</time>
      </trkpt>
      <trkpt lat="41.625188722" lon="2.521323880">
        <ele>364.00</ele>
        <time>2013-12-22T11:18:06Z</time>
      </trkpt>
      <trkpt lat="41.625065340" lon="2.521333352">
        <ele>362.55</ele>
        <time>2013-12-22T11:18:12Z</time>
      </trkpt>
      <trkpt lat="41.624975151" lon="2.521352127">
        <ele>361.11</ele>
        <time>2013-12-22T11:18:15Z</time>
      </trkpt>
      <trkpt lat="41.624892086" lon="2.521383224">
        <ele>359.67</ele>
        <time>2013-12-22T11:18:17Z</time>
      </trkpt>
      <trkpt lat="41.624681868" lon="2.521373166">
        <ele>354.86</ele>
        <time>2013-12-22T11:18:23Z</time>
      </trkpt>
      <trkpt lat="41.624596708" lon="2.521314325">
        <ele>354.38</ele>
        <time>2013-12-22T11:18:25Z</time>
      </trkpt>
      <trkpt lat="41.624483049" lon="2.521255652">
        <ele>352.46</ele>
        <time>2013-12-22T11:18:27Z</time>
      </trkpt>
      <trkpt lat="41.624255481" lon="2.521257496">
        <ele>348.13</ele>
        <time>2013-12-22T11:18:32Z</time>
      </trkpt>
      <trkpt lat="41.624165124" lon="2.521315750">
        <ele>346.69</ele>
        <time>2013-12-22T11:18:35Z</time>
      </trkpt>
      <trkpt lat="41.624053980" lon="2.521378111">
        <ele>344.77</ele>
        <time>2013-12-22T11:18:38Z</time>
      </trkpt>
      <trkpt lat="41.623930347" lon="2.521553461">
        <ele>342.85</ele>
        <time>2013-12-22T11:18:42Z</time>
      </trkpt>
      <trkpt lat="41.623902267" lon="2.521673238">
        <ele>341.41</ele>
        <time>2013-12-22T11:18:44Z</time>
      </trkpt>
      <trkpt lat="41.623838816" lon="2.521825789">
        <ele>339.96</ele>
        <time>2013-12-22T11:18:47Z</time>
      </trkpt>
      <trkpt lat="41.623699006" lon="2.522001306">
        <ele>338.04</ele>
        <time>2013-12-22T11:18:51Z</time>
      </trkpt>
      <trkpt lat="41.623539499" lon="2.522132985">
        <ele>335.64</ele>
        <time>2013-12-22T11:18:55Z</time>
      </trkpt>
      <trkpt lat="41.623369849" lon="2.522024021">
        <ele>335.16</ele>
        <time>2013-12-22T11:18:59Z</time>
      </trkpt>
      <trkpt lat="41.623265494" lon="2.521875409">
        <ele>333.71</ele>
        <time>2013-12-22T11:19:02Z</time>
      </trkpt>
      <trkpt lat="41.623066759" lon="2.521817826">
        <ele>332.75</ele>
        <time>2013-12-22T11:19:06Z</time>
      </trkpt>
      <trkpt lat="41.622731148" lon="2.521864094">
        <ele>328.43</ele>
        <time>2013-12-22T11:19:11Z</time>
      </trkpt>
      <trkpt lat="41.622413558" lon="2.521702323">
        <ele>326.02</ele>
        <time>2013-12-22T11:19:16Z</time>
      </trkpt>
      <trkpt lat="41.622290679" lon="2.521596124">
        <ele>323.62</ele>
        <time>2013-12-22T11:19:18Z</time>
      </trkpt>
      <trkpt lat="41.622079120" lon="2.521558909">
        <ele>320.26</ele>
        <time>2013-12-22T11:19:22Z</time>
      </trkpt>
      <trkpt lat="41.621991026" lon="2.521784047">
        <ele>318.81</ele>
        <time>2013-12-22T11:19:25Z</time>
      </trkpt>
      <trkpt lat="41.621984237" lon="2.521885384">
        <ele>318.33</ele>
        <time>2013-12-22T11:19:26Z</time>
      </trkpt>
      <trkpt lat="41.621986919" lon="2.522213703">
        <ele>314.97</ele>
        <time>2013-12-22T11:19:30Z</time>
      </trkpt>
      <trkpt lat="41.621905866" lon="2.522279585">
        <ele>313.05</ele>
        <time>2013-12-22T11:19:34Z</time>
      </trkpt>
      <trkpt lat="41.621849456" lon="2.522140529">
        <ele>312.09</ele>
        <time>2013-12-22T11:19:37Z</time>
      </trkpt>
      <trkpt lat="41.621733366" lon="2.521861412">
        <ele>310.16</ele>
        <time>2013-12-22T11:19:41Z</time>
      </trkpt>
      <trkpt lat="41.621631945" lon="2.521672903">
        <ele>307.76</ele>
        <time>2013-12-22T11:19:44Z</time>
      </trkpt>
      <trkpt lat="41.621522310" lon="2.521476012">
        <ele>305.84</ele>
        <time>2013-12-22T11:19:47Z</time>
      </trkpt>
      <trkpt lat="41.621384763" lon="2.521268727">
        <ele>302.95</ele>
        <time>2013-12-22T11:19:50Z</time>
      </trkpt>
      <trkpt lat="41.621189381" lon="2.521158505">
        <ele>298.15</ele>
        <time>2013-12-22T11:19:54Z</time>
      </trkpt>
      <trkpt lat="41.621082511" lon="2.521128498">
        <ele>296.70</ele>
        <time>2013-12-22T11:19:58Z</time>
      </trkpt>
      <trkpt lat="41.621124169" lon="2.521055827">
        <ele>295.74</ele>
        <time>2013-12-22T11:20:03Z</time>
      </trkpt>
      <trkpt lat="41.621154428" lon="2.521044092">
        <ele>295.74</ele>
        <time>2013-12-22T11:20:04Z</time>
      </trkpt>
      <trkpt lat="41.621364814" lon="2.520997824">
        <ele>293.82</ele>
        <time>2013-12-22T11:20:09Z</time>
      </trkpt>
      <trkpt lat="41.621553826" lon="2.521042835">
        <ele>292.86</ele>
        <time>2013-12-22T11:20:13Z</time>
      </trkpt>
      <trkpt lat="41.621815257" lon="2.521001345">
        <ele>292.38</ele>
        <time>2013-12-22T11:20:18Z</time>
      </trkpt>
      <trkpt lat="41.622064954" lon="2.520804789">
        <ele>288.53</ele>
        <time>2013-12-22T11:20:23Z</time>
      </trkpt>
      <trkpt lat="41.622231419" lon="2.520665482">
        <ele>285.17</ele>
        <time>2013-12-22T11:20:26Z</time>
      </trkpt>
      <trkpt lat="41.622391178" lon="2.520549644">
        <ele>281.80</ele>
        <time>2013-12-22T11:20:30Z</time>
      </trkpt>
      <trkpt lat="41.622432165" lon="2.520539334">
        <ele>281.32</ele>
        <time>2013-12-22T11:20:31Z</time>
      </trkpt>
      <trkpt lat="41.622458736" lon="2.520389801">
        <ele>280.36</ele>
        <time>2013-12-22T11:20:35Z</time>
      </trkpt>
      <trkpt lat="41.622321021" lon="2.520396423">
        <ele>278.92</ele>
        <time>2013-12-22T11:20:38Z</time>
      </trkpt>
      <trkpt lat="41.622106026" lon="2.520476470">
        <ele>275.56</ele>
        <time>2013-12-22T11:20:42Z</time>
      </trkpt>
      <trkpt lat="41.622000665" lon="2.520484852">
        <ele>273.15</ele>
        <time>2013-12-22T11:20:45Z</time>
      </trkpt>
      <trkpt lat="41.621727666" lon="2.520424754">
        <ele>268.83</ele>
        <time>2013-12-22T11:20:50Z</time>
      </trkpt>
      <trkpt lat="41.621528596" lon="2.520363901">
        <ele>265.46</ele>
        <time>2013-12-22T11:20:53Z</time>
      </trkpt>
      <trkpt lat="41.621452824" lon="2.520339761">
        <ele>264.50</ele>
        <time>2013-12-22T11:20:54Z</time>
      </trkpt>
      <trkpt lat="41.621218047" lon="2.520309838">
        <ele>261.62</ele>
        <time>2013-12-22T11:20:57Z</time>
      </trkpt>
      <trkpt lat="41.621000033" lon="2.520268347">
        <ele>259.69</ele>
        <time>2013-12-22T11:21:00Z</time>
      </trkpt>
      <trkpt lat="41.620783864" lon="2.520217888">
        <ele>258.25</ele>
        <time>2013-12-22T11:21:03Z</time>
      </trkpt>
      <trkpt lat="41.620412462" lon="2.520161226">
        <ele>253.93</ele>
        <time>2013-12-22T11:21:08Z</time>
      </trkpt>
      <trkpt lat="41.620214146" lon="2.520122334">
        <ele>251.04</ele>
        <time>2013-12-22T11:21:11Z</time>
      </trkpt>
      <trkpt lat="41.619944752" lon="2.520198861">
        <ele>246.72</ele>
        <time>2013-12-22T11:21:15Z</time>
      </trkpt>
      <trkpt lat="41.619701174" lon="2.520323416">
        <ele>241.91</ele>
        <time>2013-12-22T11:21:19Z</time>
      </trkpt>
      <trkpt lat="41.619496152" lon="2.520372367">
        <ele>238.06</ele>
        <time>2013-12-22T11:21:23Z</time>
      </trkpt>
      <trkpt lat="41.619391882" lon="2.520343868">
        <ele>236.62</ele>
        <time>2013-12-22T11:21:26Z</time>
      </trkpt>
      <trkpt lat="41.619350726" lon="2.520329703">
        <ele>236.14</ele>
        <time>2013-12-22T11:21:27Z</time>
      </trkpt>
      <trkpt lat="41.619134054" lon="2.520398183">
        <ele>232.78</ele>
        <time>2013-12-22T11:21:31Z</time>
      </trkpt>
      <trkpt lat="41.618871281" lon="2.520538328">
        <ele>229.41</ele>
        <time>2013-12-22T11:21:35Z</time>
      </trkpt>
      <trkpt lat="41.618530725" lon="2.520616615">
        <ele>225.57</ele>
        <time>2013-12-22T11:21:40Z</time>
      </trkpt>
      <trkpt lat="41.618328972" lon="2.520798754">
        <ele>222.68</ele>
        <time>2013-12-22T11:21:44Z</time>
      </trkpt>
      <trkpt lat="41.618303575" lon="2.520872934">
        <ele>221.72</ele>
        <time>2013-12-22T11:21:45Z</time>
      </trkpt>
      <trkpt lat="41.618261414" lon="2.521041159">
        <ele>219.80</ele>
        <time>2013-12-22T11:21:47Z</time>
      </trkpt>
      <trkpt lat="41.618065613" lon="2.521445083">
        <ele>214.99</ele>
        <time>2013-12-22T11:21:52Z</time>
      </trkpt>
      <trkpt lat="41.618008867" lon="2.521566955">
        <ele>213.07</ele>
        <time>2013-12-22T11:21:54Z</time>
      </trkpt>
      <trkpt lat="41.617874254" lon="2.521563854">
        <ele>210.67</ele>
        <time>2013-12-22T11:21:59Z</time>
      </trkpt>
      <trkpt lat="41.617838128" lon="2.521398731">
        <ele>209.70</ele>
        <time>2013-12-22T11:22:02Z</time>
      </trkpt>
      <trkpt lat="41.617711897" lon="2.520952981">
        <ele>208.26</ele>
        <time>2013-12-22T11:22:09Z</time>
      </trkpt>
      <trkpt lat="41.617692032" lon="2.520522403">
        <ele>206.34</ele>
        <time>2013-12-22T11:22:15Z</time>
      </trkpt>
      <trkpt lat="41.617701671" lon="2.520409331">
        <ele>204.90</ele>
        <time>2013-12-22T11:22:17Z</time>
      </trkpt>
      <trkpt lat="41.617787082" lon="2.520136416">
        <ele>201.53</ele>
        <time>2013-12-22T11:22:22Z</time>
      </trkpt>
      <trkpt lat="41.617834608" lon="2.520099368">
        <ele>200.57</ele>
        <time>2013-12-22T11:22:23Z</time>
      </trkpt>
      <trkpt lat="41.617905770" lon="2.519968191">
        <ele>199.13</ele>
        <time>2013-12-22T11:22:26Z</time>
      </trkpt>
      <trkpt lat="41.617881630" lon="2.519807426">
        <ele>197.69</ele>
        <time>2013-12-22T11:22:29Z</time>
      </trkpt>
      <trkpt lat="41.617821029" lon="2.519681027">
        <ele>196.25</ele>
        <time>2013-12-22T11:22:35Z</time>
      </trkpt>
      <trkpt lat="41.617821113" lon="2.519649176">
        <ele>196.25</ele>
        <time>2013-12-22T11:22:38Z</time>
      </trkpt>
      <trkpt lat="41.617705610" lon="2.519632580">
        <ele>195.28</ele>
        <time>2013-12-22T11:22:44Z</time>
      </trkpt>
      <trkpt lat="41.617455662" lon="2.519655714">
        <ele>194.80</ele>
        <time>2013-12-22T11:22:50Z</time>
      </trkpt>
      <trkpt lat="41.617405454" lon="2.519660408">
        <ele>194.32</ele>
        <time>2013-12-22T11:22:51Z</time>
      </trkpt>
      <trkpt lat="41.617077554" lon="2.519701060">
        <ele>192.88</ele>
        <time>2013-12-22T11:22:57Z</time>
      </trkpt>
      <trkpt lat="41.616634822" lon="2.519817317">
        <ele>190.48</ele>
        <time>2013-12-22T11:23:04Z</time>
      </trkpt>
      <trkpt lat="41.616536167" lon="2.519865932">
        <ele>190.00</ele>
        <time>2013-12-22T11:23:06Z</time>
      </trkpt>
      <trkpt lat="41.616340953" lon="2.520026613">
        <ele>189.04</ele>
        <time>2013-12-22T11:23:12Z</time>
      </trkpt>
      <trkpt lat="41.616236766" lon="2.520211183">
        <ele>190.00</ele>
        <time>2013-12-22T11:23:19Z</time>
      </trkpt>
      <trkpt lat="41.616124532" lon="2.520446463">
        <ele>190.00</ele>
        <time>2013-12-22T11:23:24Z</time>
      </trkpt>
      <trkpt lat="41.615999893" lon="2.520846866">
        <ele>189.04</ele>
        <time>2013-12-22T11:23:31Z</time>
      </trkpt>
      <trkpt lat="41.615986063" lon="2.521119362">
        <ele>189.04</ele>
        <time>2013-12-22T11:23:35Z</time>
      </trkpt>
      <trkpt lat="41.615911129" lon="2.521735264">
        <ele>187.11</ele>
        <time>2013-12-22T11:23:44Z</time>
      </trkpt>
      <trkpt lat="41.615903836" lon="2.521800475">
        <ele>187.11</ele>
        <time>2013-12-22T11:23:45Z</time>
      </trkpt>
      <trkpt lat="41.615837871" lon="2.522303138">
        <ele>185.19</ele>
        <time>2013-12-22T11:23:52Z</time>
      </trkpt>
      <trkpt lat="41.615796380" lon="2.522644868">
        <ele>184.23</ele>
        <time>2013-12-22T11:23:56Z</time>
      </trkpt>
      <trkpt lat="41.615677860" lon="2.523563609">
        <ele>181.83</ele>
        <time>2013-12-22T11:24:06Z</time>
      </trkpt>
      <trkpt lat="41.615633185" lon="2.523897963">
        <ele>179.90</ele>
        <time>2013-12-22T11:24:11Z</time>
      </trkpt>
      <trkpt lat="41.615616421" lon="2.524066104">
        <ele>179.42</ele>
        <time>2013-12-22T11:24:13Z</time>
      </trkpt>
      <trkpt lat="41.615629078" lon="2.524453851">
        <ele>177.98</ele>
        <time>2013-12-22T11:24:17Z</time>
      </trkpt>
      <trkpt lat="41.615552215" lon="2.525223225">
        <ele>175.10</ele>
        <time>2013-12-22T11:24:25Z</time>
      </trkpt>
      <trkpt lat="41.615544839" lon="2.525315091">
        <ele>174.62</ele>
        <time>2013-12-22T11:24:26Z</time>
      </trkpt>
      <trkpt lat="41.615547773" lon="2.525938118">
        <ele>172.21</ele>
        <time>2013-12-22T11:24:33Z</time>
      </trkpt>
      <trkpt lat="41.615548527" lon="2.526009280">
        <ele>172.21</ele>
        <time>2013-12-22T11:24:34Z</time>
      </trkpt>
      <trkpt lat="41.615578954" lon="2.526367523">
        <ele>171.25</ele>
        <time>2013-12-22T11:24:40Z</time>
      </trkpt>
      <trkpt lat="41.615581636" lon="2.526512697">
        <ele>170.77</ele>
        <time>2013-12-22T11:24:46Z</time>
      </trkpt>
      <trkpt lat="41.615608207" lon="2.526714617">
        <ele>170.29</ele>
        <time>2013-12-22T11:24:50Z</time>
      </trkpt>
      <trkpt lat="41.615564788" lon="2.527236307">
        <ele>168.37</ele>
        <time>2013-12-22T11:24:57Z</time>
      </trkpt>
      <trkpt lat="41.615492033" lon="2.527608380">
        <ele>166.93</ele>
        <time>2013-12-22T11:25:02Z</time>
      </trkpt>
      <trkpt lat="41.615439060" lon="2.527737545">
        <ele>166.93</ele>
        <time>2013-12-22T11:25:04Z</time>
      </trkpt>
      <trkpt lat="41.615321294" lon="2.528186815">
        <ele>165.48</ele>
        <time>2013-12-22T11:25:10Z</time>
      </trkpt>
      <trkpt lat="41.615303441" lon="2.528266275">
        <ele>165.00</ele>
        <time>2013-12-22T11:25:11Z</time>
      </trkpt>
      <trkpt lat="41.615175868" lon="2.529025257">
        <ele>164.04</ele>
        <time>2013-12-22T11:25:20Z</time>
      </trkpt>
      <trkpt lat="41.615160697" lon="2.529561782">
        <ele>162.60</ele>
        <time>2013-12-22T11:25:26Z</time>
      </trkpt>
      <trkpt lat="41.615146867" lon="2.530302994">
        <ele>160.20</ele>
        <time>2013-12-22T11:25:34Z</time>
      </trkpt>
      <trkpt lat="41.615113088" lon="2.531062143">
        <ele>157.31</ele>
        <time>2013-12-22T11:25:42Z</time>
      </trkpt>
      <trkpt lat="41.615105460" lon="2.531155601">
        <ele>156.83</ele>
        <time>2013-12-22T11:25:43Z</time>
      </trkpt>
      <trkpt lat="41.615166816" lon="2.531513844">
        <ele>155.87</ele>
        <time>2013-12-22T11:25:47Z</time>
      </trkpt>
      <trkpt lat="41.615190201" lon="2.532135949">
        <ele>153.95</ele>
        <time>2013-12-22T11:25:53Z</time>
      </trkpt>
      <trkpt lat="41.615002195" lon="2.532862492">
        <ele>151.54</ele>
        <time>2013-12-22T11:26:01Z</time>
      </trkpt>
      <trkpt lat="41.614923489" lon="2.533126354">
        <ele>150.58</ele>
        <time>2013-12-22T11:26:04Z</time>
      </trkpt>
      <trkpt lat="41.614677229" lon="2.533918696">
        <ele>148.18</ele>
        <time>2013-12-22T11:26:13Z</time>
      </trkpt>
      <trkpt lat="41.614317813" lon="2.534977833">
        <ele>144.82</ele>
        <time>2013-12-22T11:26:25Z</time>
      </trkpt>
      <trkpt lat="41.614125280" lon="2.535589209">
        <ele>142.89</ele>
        <time>2013-12-22T11:26:32Z</time>
      </trkpt>
      <trkpt lat="41.613854796" lon="2.536301671">
        <ele>140.97</ele>
        <time>2013-12-22T11:26:41Z</time>
      </trkpt>
      <trkpt lat="41.613825795" lon="2.536364451">
        <ele>140.01</ele>
        <time>2013-12-22T11:26:42Z</time>
      </trkpt>
      <trkpt lat="41.613696714" lon="2.536613729">
        <ele>138.57</ele>
        <time>2013-12-22T11:26:48Z</time>
      </trkpt>
      <trkpt lat="41.613554054" lon="2.536894774">
        <ele>138.09</ele>
        <time>2013-12-22T11:26:55Z</time>
      </trkpt>
      <trkpt lat="41.613531506" lon="2.536943557">
        <ele>138.09</ele>
        <time>2013-12-22T11:26:56Z</time>
      </trkpt>
      <trkpt lat="41.613219280" lon="2.537352091">
        <ele>136.16</ele>
        <time>2013-12-22T11:27:05Z</time>
      </trkpt>
      <trkpt lat="41.612871180" lon="2.537725840">
        <ele>135.20</ele>
        <time>2013-12-22T11:27:14Z</time>
      </trkpt>
      <trkpt lat="41.612714103" lon="2.537908314">
        <ele>134.72</ele>
        <time>2013-12-22T11:27:18Z</time>
      </trkpt>
      <trkpt lat="41.612396932" lon="2.538301425">
        <ele>132.80</ele>
        <time>2013-12-22T11:27:26Z</time>
      </trkpt>
      <trkpt lat="41.612222002" lon="2.538574675">
        <ele>131.84</ele>
        <time>2013-12-22T11:27:31Z</time>
      </trkpt>
      <trkpt lat="41.612091411" lon="2.538856391">
        <ele>130.40</ele>
        <time>2013-12-22T11:27:37Z</time>
      </trkpt>
      <trkpt lat="41.611947410" lon="2.539044565">
        <ele>129.43</ele>
        <time>2013-12-22T11:27:42Z</time>
      </trkpt>
      <trkpt lat="41.611869375" lon="2.538996620">
        <ele>129.43</ele>
        <time>2013-12-22T11:27:47Z</time>
      </trkpt>
      <trkpt lat="41.611809863" lon="2.538804339">
        <ele>131.36</ele>
        <time>2013-12-22T11:27:54Z</time>
      </trkpt>
      <trkpt lat="41.611644824" lon="2.538764190">
        <ele>132.32</ele>
        <time>2013-12-22T11:28:01Z</time>
      </trkpt>
      <trkpt lat="41.611469390" lon="2.538764358">
        <ele>132.32</ele>
        <time>2013-12-22T11:28:05Z</time>
      </trkpt>
      <trkpt lat="41.611366544" lon="2.538791766">
        <ele>131.36</ele>
        <time>2013-12-22T11:28:07Z</time>
      </trkpt>
      <trkpt lat="41.611142329" lon="2.538830156">
        <ele>130.40</ele>
        <time>2013-12-22T11:28:11Z</time>
      </trkpt>
      <trkpt lat="41.610738237" lon="2.539013216">
        <ele>127.99</ele>
        <time>2013-12-22T11:28:18Z</time>
      </trkpt>
      <trkpt lat="41.610100207" lon="2.539372968">
        <ele>125.59</ele>
        <time>2013-12-22T11:28:29Z</time>
      </trkpt>
      <trkpt lat="41.609826873" lon="2.539550915">
        <ele>123.19</ele>
        <time>2013-12-22T11:28:35Z</time>
      </trkpt>
      <trkpt lat="41.609753531" lon="2.539611768">
        <ele>122.22</ele>
        <time>2013-12-22T11:28:39Z</time>
      </trkpt>
      <trkpt lat="41.609581283" lon="2.539670441">
        <ele>121.74</ele>
        <time>2013-12-22T11:28:48Z</time>
      </trkpt>
      <trkpt lat="41.609487825" lon="2.539737413">
        <ele>121.26</ele>
        <time>2013-12-22T11:28:53Z</time>
      </trkpt>
      <trkpt lat="41.609414064" lon="2.539769013">
        <ele>121.26</ele>
        <time>2013-12-22T11:28:57Z</time>
      </trkpt>
      <trkpt lat="41.609241229" lon="2.539892646">
        <ele>120.30</ele>
        <time>2013-12-22T11:29:06Z</time>
      </trkpt>
      <trkpt lat="41.609157913" lon="2.540075203">
        <ele>119.82</ele>
        <time>2013-12-22T11:29:11Z</time>
      </trkpt>
      <trkpt lat="41.609057414" lon="2.540269915">
        <ele>118.86</ele>
        <time>2013-12-22T11:29:16Z</time>
      </trkpt>
      <trkpt lat="41.608864714" lon="2.540454652">
        <ele>118.38</ele>
        <time>2013-12-22T11:29:22Z</time>
      </trkpt>
      <trkpt lat="41.608810148" lon="2.540408049">
        <ele>118.38</ele>
        <time>2013-12-22T11:29:26Z</time>
      </trkpt>
      <trkpt lat="41.608758683" lon="2.540312328">
        <ele>116.94</ele>
        <time>2013-12-22T11:29:29Z</time>
      </trkpt>
      <trkpt lat="41.608453833" lon="2.540346442">
        <ele>116.46</ele>
        <time>2013-12-22T11:29:37Z</time>
      </trkpt>
      <trkpt lat="41.608297008" lon="2.540371588">
        <ele>116.46</ele>
        <time>2013-12-22T11:29:41Z</time>
      </trkpt>
      <trkpt lat="41.607908339" lon="2.540429590">
        <ele>115.50</ele>
        <time>2013-12-22T11:29:51Z</time>
      </trkpt>
      <trkpt lat="41.607685296" lon="2.540492371">
        <ele>115.01</ele>
        <time>2013-12-22T11:29:58Z</time>
      </trkpt>
      <trkpt lat="41.607558897" lon="2.540685322">
        <ele>114.05</ele>
        <time>2013-12-22T11:30:04Z</time>
      </trkpt>
      <trkpt lat="41.607504415" lon="2.540771153">
        <ele>114.05</ele>
        <time>2013-12-22T11:30:08Z</time>
      </trkpt>
      <trkpt lat="41.607341052" lon="2.540811554">
        <ele>114.05</ele>
        <time>2013-12-22T11:30:14Z</time>
      </trkpt>
      <trkpt lat="41.607231584" lon="2.540803088">
        <ele>114.05</ele>
        <time>2013-12-22T11:30:17Z</time>
      </trkpt>
      <trkpt lat="41.606863283" lon="2.540707953">
        <ele>112.61</ele>
        <time>2013-12-22T11:30:27Z</time>
      </trkpt>
      <trkpt lat="41.606544017" lon="2.540538723">
        <ele>112.13</ele>
        <time>2013-12-22T11:30:35Z</time>
      </trkpt>
      <trkpt lat="41.606502610" lon="2.540523719">
        <ele>111.65</ele>
        <time>2013-12-22T11:30:36Z</time>
      </trkpt>
      <trkpt lat="41.606253835" lon="2.540397488">
        <ele>111.17</ele>
        <time>2013-12-22T11:30:42Z</time>
      </trkpt>
      <trkpt lat="41.606121904" lon="2.540362870">
        <ele>110.69</ele>
        <time>2013-12-22T11:30:45Z</time>
      </trkpt>
      <trkpt lat="41.605939681" lon="2.540382149">
        <ele>110.21</ele>
        <time>2013-12-22T11:30:50Z</time>
      </trkpt>
      <trkpt lat="41.605955188" lon="2.540447947">
        <ele>110.21</ele>
        <time>2013-12-22T11:30:55Z</time>
      </trkpt>
      <trkpt lat="41.605994918" lon="2.540469572">
        <ele>110.21</ele>
        <time>2013-12-22T11:30:58Z</time>
      </trkpt>
      <trkpt lat="41.606062392" lon="2.540504189">
        <ele>110.21</ele>
        <time>2013-12-22T11:31:02Z</time>
      </trkpt>
      <trkpt lat="41.606108996" lon="2.540584488">
        <ele>110.21</ele>
        <time>2013-12-22T11:31:06Z</time>
      </trkpt>
      <trkpt lat="41.606199688" lon="2.540651375">
        <ele>111.65</ele>
        <time>2013-12-22T11:31:10Z</time>
      </trkpt>
      <trkpt lat="41.606448044" lon="2.540726896">
        <ele>112.13</ele>
        <time>2013-12-22T11:31:19Z</time>
      </trkpt>
      <trkpt lat="41.606547285" lon="2.540792946">
        <ele>113.09</ele>
        <time>2013-12-22T11:31:23Z</time>
      </trkpt>
      <trkpt lat="41.606625153" lon="2.541042140">
        <ele>114.53</ele>
        <time>2013-12-22T11:31:30Z</time>
      </trkpt>
      <trkpt lat="41.606660776" lon="2.541167365">
        <ele>115.01</ele>
        <time>2013-12-22T11:31:34Z</time>
      </trkpt>
      <trkpt lat="41.606715259" lon="2.541378589">
        <ele>116.46</ele>
        <time>2013-12-22T11:31:40Z</time>
      </trkpt>
      <trkpt lat="41.606777285" lon="2.541575899">
        <ele>117.42</ele>
        <time>2013-12-22T11:31:46Z</time>
      </trkpt>
      <trkpt lat="41.606816596" lon="2.541729959">
        <ele>118.38</ele>
        <time>2013-12-22T11:31:52Z</time>
      </trkpt>
      <trkpt lat="41.606817518" lon="2.541747226">
        <ele>117.90</ele>
        <time>2013-12-22T11:31:53Z</time>
      </trkpt>
      <trkpt lat="41.606871414" lon="2.541892484">
        <ele>119.34</ele>
        <time>2013-12-22T11:31:59Z</time>
      </trkpt>
      <trkpt lat="41.606921370" lon="2.542019721">
        <ele>119.82</ele>
        <time>2013-12-22T11:32:04Z</time>
      </trkpt>
      <trkpt lat="41.606994795" lon="2.542218959">
        <ele>121.26</ele>
        <time>2013-12-22T11:32:12Z</time>
      </trkpt>
      <trkpt lat="41.607040309" lon="2.542358266">
        <ele>122.22</ele>
        <time>2013-12-22T11:32:18Z</time>
      </trkpt>
    </trkseg>
  </trk>
</gpx>
